<?xml version="1.0" encoding="UTF-8" standalone="no" ?>
<gpx xmlns="http://www.topografix.com/GPX/1/1" xmlns:xsi="http://www.w3.org/2001/XMLSchema-instance" xsi:schemaLocation="http://www.topografix.com/GPX/1/1 http://www.topografix.com/GPX/1/1/gpx.xsd" version="1.1" creator="VisuGPX - https://www.visugpx.com">
  <metadata>
    <name>Bon Encontraise 2011</name>
    <desc><![CDATA[[b]Rando 30 km[/b]
[i]par un temps idéal et des ravitaillements en musique[/i]]]></desc>
  </metadata>
  <trk>
    <name><![CDATA[ACTIVE LOG 002]]></name>
    <trkseg>
      <trkpt lat="44.18494" lon="0.67677">
        <ele>48.68396</ele>
        <time>2011-05-08T07:00:07Z</time>
      </trkpt>
      <trkpt lat="44.18528" lon="0.67672">
        <ele>50.125977</ele>
        <time>2011-05-08T07:00:20Z</time>
      </trkpt>
      <trkpt lat="44.18579" lon="0.67654">
        <ele>49.645264</ele>
        <time>2011-05-08T07:00:35Z</time>
      </trkpt>
      <trkpt lat="44.18629" lon="0.67644">
        <ele>52.529175</ele>
        <time>2011-05-08T07:00:49Z</time>
      </trkpt>
      <trkpt lat="44.18643" lon="0.67644">
        <ele>53.009766</ele>
        <time>2011-05-08T07:00:53Z</time>
      </trkpt>
      <trkpt lat="44.18652" lon="0.6766">
        <ele>53.971191</ele>
        <time>2011-05-08T07:00:57Z</time>
      </trkpt>
      <trkpt lat="44.18674" lon="0.67775">
        <ele>53.009766</ele>
        <time>2011-05-08T07:01:14Z</time>
      </trkpt>
      <trkpt lat="44.1869" lon="0.67909">
        <ele>53.971191</ele>
        <time>2011-05-08T07:01:32Z</time>
      </trkpt>
      <trkpt lat="44.18699" lon="0.6804">
        <ele>55.893799</ele>
        <time>2011-05-08T07:01:49Z</time>
      </trkpt>
      <trkpt lat="44.18711" lon="0.68195">
        <ele>57.335815</ele>
        <time>2011-05-08T07:02:07Z</time>
      </trkpt>
      <trkpt lat="44.18713" lon="0.68221">
        <ele>57.816528</ele>
        <time>2011-05-08T07:02:10Z</time>
      </trkpt>
      <trkpt lat="44.18746" lon="0.68254">
        <ele>59.739136</ele>
        <time>2011-05-08T07:02:17Z</time>
      </trkpt>
      <trkpt lat="44.18758" lon="0.68251">
        <ele>60.219727</ele>
        <time>2011-05-08T07:02:19Z</time>
      </trkpt>
      <trkpt lat="44.18794" lon="0.68234">
        <ele>60.700317</ele>
        <time>2011-05-08T07:02:25Z</time>
      </trkpt>
      <trkpt lat="44.18834" lon="0.6825">
        <ele>62.142334</ele>
        <time>2011-05-08T07:02:32Z</time>
      </trkpt>
      <trkpt lat="44.18884" lon="0.68327">
        <ele>62.142334</ele>
        <time>2011-05-08T07:02:46Z</time>
      </trkpt>
      <trkpt lat="44.18936" lon="0.68381">
        <ele>63.584351</ele>
        <time>2011-05-08T07:02:58Z</time>
      </trkpt>
      <trkpt lat="44.1899" lon="0.68467">
        <ele>66.468262</ele>
        <time>2011-05-08T07:03:14Z</time>
      </trkpt>
      <trkpt lat="44.19051" lon="0.68548">
        <ele>66.948975</ele>
        <time>2011-05-08T07:03:30Z</time>
      </trkpt>
      <trkpt lat="44.19077" lon="0.68581">
        <ele>65.987671</ele>
        <time>2011-05-08T07:03:37Z</time>
      </trkpt>
      <trkpt lat="44.19094" lon="0.68614">
        <ele>66.468262</ele>
        <time>2011-05-08T07:03:43Z</time>
      </trkpt>
      <trkpt lat="44.19121" lon="0.6865">
        <ele>67.429688</ele>
        <time>2011-05-08T07:03:53Z</time>
      </trkpt>
      <trkpt lat="44.19154" lon="0.68612">
        <ele>70.794189</ele>
        <time>2011-05-08T07:04:08Z</time>
      </trkpt>
      <trkpt lat="44.19169" lon="0.68576">
        <ele>73.678223</ele>
        <time>2011-05-08T07:04:22Z</time>
      </trkpt>
      <trkpt lat="44.19184" lon="0.6854">
        <ele>76.562134</ele>
        <time>2011-05-08T07:04:36Z</time>
      </trkpt>
      <trkpt lat="44.19197" lon="0.6851">
        <ele>78.965454</ele>
        <time>2011-05-08T07:04:48Z</time>
      </trkpt>
      <trkpt lat="44.19211" lon="0.68481">
        <ele>79.926636</ele>
        <time>2011-05-08T07:05:00Z</time>
      </trkpt>
      <trkpt lat="44.19233" lon="0.68452">
        <ele>83.771973</ele>
        <time>2011-05-08T07:05:15Z</time>
      </trkpt>
      <trkpt lat="44.19244" lon="0.68444">
        <ele>87.136597</ele>
        <time>2011-05-08T07:05:22Z</time>
      </trkpt>
      <trkpt lat="44.19272" lon="0.68465">
        <ele>90.981934</ele>
        <time>2011-05-08T07:05:40Z</time>
      </trkpt>
      <trkpt lat="44.19291" lon="0.68481">
        <ele>93.865845</ele>
        <time>2011-05-08T07:05:56Z</time>
      </trkpt>
      <trkpt lat="44.19306" lon="0.68493">
        <ele>96.749878</ele>
        <time>2011-05-08T07:06:11Z</time>
      </trkpt>
      <trkpt lat="44.19321" lon="0.68508">
        <ele>101.075684</ele>
        <time>2011-05-08T07:06:27Z</time>
      </trkpt>
      <trkpt lat="44.1933" lon="0.68517">
        <ele>102.5177</ele>
        <time>2011-05-08T07:06:37Z</time>
      </trkpt>
      <trkpt lat="44.19348" lon="0.68533">
        <ele>107.324341</ele>
        <time>2011-05-08T07:06:54Z</time>
      </trkpt>
      <trkpt lat="44.1935" lon="0.68534">
        <ele>108.285645</ele>
        <time>2011-05-08T07:06:56Z</time>
      </trkpt>
      <trkpt lat="44.19361" lon="0.68545">
        <ele>110.208252</ele>
        <time>2011-05-08T07:07:07Z</time>
      </trkpt>
      <trkpt lat="44.19366" lon="0.68549">
        <ele>111.169556</ele>
        <time>2011-05-08T07:07:11Z</time>
      </trkpt>
      <trkpt lat="44.19372" lon="0.68548">
        <ele>111.169556</ele>
        <time>2011-05-08T07:07:16Z</time>
      </trkpt>
      <trkpt lat="44.19375" lon="0.68544">
        <ele>111.169556</ele>
        <time>2011-05-08T07:07:19Z</time>
      </trkpt>
      <trkpt lat="44.19386" lon="0.68533">
        <ele>111.650269</ele>
        <time>2011-05-08T07:07:28Z</time>
      </trkpt>
      <trkpt lat="44.19408" lon="0.68513">
        <ele>113.092285</ele>
        <time>2011-05-08T07:07:45Z</time>
      </trkpt>
      <trkpt lat="44.19432" lon="0.68493">
        <ele>113.572998</ele>
        <time>2011-05-08T07:08:02Z</time>
      </trkpt>
      <trkpt lat="44.19456" lon="0.68473">
        <ele>115.014893</ele>
        <time>2011-05-08T07:08:16Z</time>
      </trkpt>
      <trkpt lat="44.19483" lon="0.6845">
        <ele>117.898804</ele>
        <time>2011-05-08T07:08:30Z</time>
      </trkpt>
      <trkpt lat="44.19508" lon="0.68429">
        <ele>120.782837</ele>
        <time>2011-05-08T07:08:46Z</time>
      </trkpt>
      <trkpt lat="44.19519" lon="0.68417">
        <ele>122.705444</ele>
        <time>2011-05-08T07:08:56Z</time>
      </trkpt>
      <trkpt lat="44.19526" lon="0.68412">
        <ele>124.147339</ele>
        <time>2011-05-08T07:09:02Z</time>
      </trkpt>
      <trkpt lat="44.19539" lon="0.68399">
        <ele>127.511963</ele>
        <time>2011-05-08T07:09:14Z</time>
      </trkpt>
      <trkpt lat="44.19551" lon="0.68387">
        <ele>130.876709</ele>
        <time>2011-05-08T07:09:26Z</time>
      </trkpt>
      <trkpt lat="44.19556" lon="0.68381">
        <ele>131.3573</ele>
        <time>2011-05-08T07:09:31Z</time>
      </trkpt>
      <trkpt lat="44.19558" lon="0.68377">
        <ele>131.837891</ele>
        <time>2011-05-08T07:09:34Z</time>
      </trkpt>
      <trkpt lat="44.19568" lon="0.68367">
        <ele>132.799316</ele>
        <time>2011-05-08T07:09:45Z</time>
      </trkpt>
      <trkpt lat="44.19582" lon="0.68354">
        <ele>137.125244</ele>
        <time>2011-05-08T07:10:00Z</time>
      </trkpt>
      <trkpt lat="44.19591" lon="0.68347">
        <ele>139.528442</ele>
        <time>2011-05-08T07:10:10Z</time>
      </trkpt>
      <trkpt lat="44.19595" lon="0.68344">
        <ele>140.970459</ele>
        <time>2011-05-08T07:10:15Z</time>
      </trkpt>
      <trkpt lat="44.19599" lon="0.68337">
        <ele>142.893066</ele>
        <time>2011-05-08T07:10:20Z</time>
      </trkpt>
      <trkpt lat="44.19614" lon="0.68327">
        <ele>143.373657</ele>
        <time>2011-05-08T07:10:33Z</time>
      </trkpt>
      <trkpt lat="44.19616" lon="0.68326">
        <ele>143.373657</ele>
        <time>2011-05-08T07:10:35Z</time>
      </trkpt>
      <trkpt lat="44.19626" lon="0.6832">
        <ele>145.296387</ele>
        <time>2011-05-08T07:10:44Z</time>
      </trkpt>
      <trkpt lat="44.19644" lon="0.68307">
        <ele>146.257813</ele>
        <time>2011-05-08T07:10:56Z</time>
      </trkpt>
      <trkpt lat="44.19673" lon="0.68287">
        <ele>147.699707</ele>
        <time>2011-05-08T07:11:09Z</time>
      </trkpt>
      <trkpt lat="44.19687" lon="0.68296">
        <ele>145.7771</ele>
        <time>2011-05-08T07:11:14Z</time>
      </trkpt>
      <trkpt lat="44.19722" lon="0.68299">
        <ele>143.373657</ele>
        <time>2011-05-08T07:11:23Z</time>
      </trkpt>
      <trkpt lat="44.19741" lon="0.683">
        <ele>142.412476</ele>
        <time>2011-05-08T07:11:27Z</time>
      </trkpt>
      <trkpt lat="44.19773" lon="0.6831">
        <ele>142.893066</ele>
        <time>2011-05-08T07:11:36Z</time>
      </trkpt>
      <trkpt lat="44.19788" lon="0.68323">
        <ele>143.373657</ele>
        <time>2011-05-08T07:11:40Z</time>
      </trkpt>
      <trkpt lat="44.19816" lon="0.68352">
        <ele>143.85437</ele>
        <time>2011-05-08T07:11:49Z</time>
      </trkpt>
      <trkpt lat="44.19845" lon="0.68382">
        <ele>143.85437</ele>
        <time>2011-05-08T07:12:00Z</time>
      </trkpt>
      <trkpt lat="44.19848" lon="0.68386">
        <ele>143.85437</ele>
        <time>2011-05-08T07:12:01Z</time>
      </trkpt>
      <trkpt lat="44.19891" lon="0.68417">
        <ele>145.296387</ele>
        <time>2011-05-08T07:12:14Z</time>
      </trkpt>
      <trkpt lat="44.19921" lon="0.68437">
        <ele>151.064209</ele>
        <time>2011-05-08T07:12:28Z</time>
      </trkpt>
      <trkpt lat="44.19946" lon="0.68454">
        <ele>154.909546</ele>
        <time>2011-05-08T07:12:41Z</time>
      </trkpt>
      <trkpt lat="44.1997" lon="0.68484">
        <ele>157.793579</ele>
        <time>2011-05-08T07:12:55Z</time>
      </trkpt>
      <trkpt lat="44.19971" lon="0.68488">
        <ele>158.27417</ele>
        <time>2011-05-08T07:12:56Z</time>
      </trkpt>
      <trkpt lat="44.19973" lon="0.68511">
        <ele>160.196899</ele>
        <time>2011-05-08T07:13:00Z</time>
      </trkpt>
      <trkpt lat="44.19978" lon="0.68537">
        <ele>161.158203</ele>
        <time>2011-05-08T07:13:04Z</time>
      </trkpt>
      <trkpt lat="44.19981" lon="0.68559">
        <ele>161.638916</ele>
        <time>2011-05-08T07:13:07Z</time>
      </trkpt>
      <trkpt lat="44.20001" lon="0.68627">
        <ele>165.484131</ele>
        <time>2011-05-08T07:13:18Z</time>
      </trkpt>
      <trkpt lat="44.20023" lon="0.68687">
        <ele>170.290649</ele>
        <time>2011-05-08T07:13:30Z</time>
      </trkpt>
      <trkpt lat="44.20035" lon="0.68687">
        <ele>168.848755</ele>
        <time>2011-05-08T07:13:34Z</time>
      </trkpt>
      <trkpt lat="44.20079" lon="0.68652">
        <ele>166.926025</ele>
        <time>2011-05-08T07:13:49Z</time>
      </trkpt>
      <trkpt lat="44.20098" lon="0.68639">
        <ele>165.964722</ele>
        <time>2011-05-08T07:13:56Z</time>
      </trkpt>
      <trkpt lat="44.20109" lon="0.6863">
        <ele>165.003418</ele>
        <time>2011-05-08T07:13:59Z</time>
      </trkpt>
      <trkpt lat="44.20127" lon="0.68617">
        <ele>163.080811</ele>
        <time>2011-05-08T07:14:03Z</time>
      </trkpt>
      <trkpt lat="44.20161" lon="0.68613">
        <ele>162.119507</ele>
        <time>2011-05-08T07:14:09Z</time>
      </trkpt>
      <trkpt lat="44.202" lon="0.68574">
        <ele>161.158203</ele>
        <time>2011-05-08T07:14:17Z</time>
      </trkpt>
      <trkpt lat="44.20215" lon="0.68547">
        <ele>159.716187</ele>
        <time>2011-05-08T07:14:21Z</time>
      </trkpt>
      <trkpt lat="44.20226" lon="0.68528">
        <ele>157.793579</ele>
        <time>2011-05-08T07:14:24Z</time>
      </trkpt>
      <trkpt lat="44.2024" lon="0.68504">
        <ele>154.428955</ele>
        <time>2011-05-08T07:14:28Z</time>
      </trkpt>
      <trkpt lat="44.20247" lon="0.68485">
        <ele>152.506348</ele>
        <time>2011-05-08T07:14:31Z</time>
      </trkpt>
      <trkpt lat="44.20274" lon="0.68441">
        <ele>149.141602</ele>
        <time>2011-05-08T07:14:39Z</time>
      </trkpt>
      <trkpt lat="44.2031" lon="0.68447">
        <ele>147.218994</ele>
        <time>2011-05-08T07:14:45Z</time>
      </trkpt>
      <trkpt lat="44.20324" lon="0.68457">
        <ele>146.257813</ele>
        <time>2011-05-08T07:14:48Z</time>
      </trkpt>
      <trkpt lat="44.20343" lon="0.68472">
        <ele>146.738403</ele>
        <time>2011-05-08T07:14:52Z</time>
      </trkpt>
      <trkpt lat="44.20356" lon="0.68486">
        <ele>147.218994</ele>
        <time>2011-05-08T07:14:55Z</time>
      </trkpt>
      <trkpt lat="44.2039" lon="0.68516">
        <ele>148.18042</ele>
        <time>2011-05-08T07:15:02Z</time>
      </trkpt>
      <trkpt lat="44.2043" lon="0.68549">
        <ele>148.661011</ele>
        <time>2011-05-08T07:15:10Z</time>
      </trkpt>
      <trkpt lat="44.20456" lon="0.68592">
        <ele>148.661011</ele>
        <time>2011-05-08T07:15:16Z</time>
      </trkpt>
      <trkpt lat="44.20476" lon="0.68596">
        <ele>150.103027</ele>
        <time>2011-05-08T07:15:23Z</time>
      </trkpt>
      <trkpt lat="44.20487" lon="0.68583">
        <ele>152.025757</ele>
        <time>2011-05-08T07:15:28Z</time>
      </trkpt>
      <trkpt lat="44.20509" lon="0.68552">
        <ele>158.754761</ele>
        <time>2011-05-08T07:15:42Z</time>
      </trkpt>
      <trkpt lat="44.20524" lon="0.68521">
        <ele>160.67749</ele>
        <time>2011-05-08T07:15:55Z</time>
      </trkpt>
      <trkpt lat="44.20538" lon="0.68496">
        <ele>161.638916</ele>
        <time>2011-05-08T07:16:06Z</time>
      </trkpt>
      <trkpt lat="44.20548" lon="0.68473">
        <ele>165.484131</ele>
        <time>2011-05-08T07:16:19Z</time>
      </trkpt>
      <trkpt lat="44.2055" lon="0.68467">
        <ele>165.964722</ele>
        <time>2011-05-08T07:16:22Z</time>
      </trkpt>
      <trkpt lat="44.20559" lon="0.68442">
        <ele>167.406738</ele>
        <time>2011-05-08T07:16:33Z</time>
      </trkpt>
      <trkpt lat="44.20566" lon="0.68417">
        <ele>168.368042</ele>
        <time>2011-05-08T07:16:45Z</time>
      </trkpt>
      <trkpt lat="44.20574" lon="0.68383">
        <ele>169.810059</ele>
        <time>2011-05-08T07:17:00Z</time>
      </trkpt>
      <trkpt lat="44.2058" lon="0.68354">
        <ele>170.290649</ele>
        <time>2011-05-08T07:17:13Z</time>
      </trkpt>
      <trkpt lat="44.20589" lon="0.68324">
        <ele>172.213257</ele>
        <time>2011-05-08T07:17:26Z</time>
      </trkpt>
      <trkpt lat="44.20604" lon="0.6834">
        <ele>170.771362</ele>
        <time>2011-05-08T07:17:34Z</time>
      </trkpt>
      <trkpt lat="44.20615" lon="0.68351">
        <ele>169.810059</ele>
        <time>2011-05-08T07:17:37Z</time>
      </trkpt>
      <trkpt lat="44.20685" lon="0.68387">
        <ele>167.406738</ele>
        <time>2011-05-08T07:17:49Z</time>
      </trkpt>
      <trkpt lat="44.20691" lon="0.68389">
        <ele>166.926025</ele>
        <time>2011-05-08T07:17:50Z</time>
      </trkpt>
      <trkpt lat="44.20713" lon="0.68384">
        <ele>165.003418</ele>
        <time>2011-05-08T07:17:54Z</time>
      </trkpt>
      <trkpt lat="44.20729" lon="0.68366">
        <ele>163.080811</ele>
        <time>2011-05-08T07:17:57Z</time>
      </trkpt>
      <trkpt lat="44.20765" lon="0.68316">
        <ele>159.235474</ele>
        <time>2011-05-08T07:18:04Z</time>
      </trkpt>
      <trkpt lat="44.20787" lon="0.68294">
        <ele>157.312866</ele>
        <time>2011-05-08T07:18:08Z</time>
      </trkpt>
      <trkpt lat="44.2084" lon="0.68192">
        <ele>152.506348</ele>
        <time>2011-05-08T07:18:20Z</time>
      </trkpt>
      <trkpt lat="44.20876" lon="0.68162">
        <ele>149.622314</ele>
        <time>2011-05-08T07:18:26Z</time>
      </trkpt>
      <trkpt lat="44.20883" lon="0.68147">
        <ele>149.141602</ele>
        <time>2011-05-08T07:18:28Z</time>
      </trkpt>
      <trkpt lat="44.20924" lon="0.68033">
        <ele>145.7771</ele>
        <time>2011-05-08T07:18:43Z</time>
      </trkpt>
      <trkpt lat="44.20937" lon="0.67994">
        <ele>144.815796</ele>
        <time>2011-05-08T07:18:49Z</time>
      </trkpt>
      <trkpt lat="44.20964" lon="0.67973">
        <ele>145.296387</ele>
        <time>2011-05-08T07:18:56Z</time>
      </trkpt>
      <trkpt lat="44.20973" lon="0.67973">
        <ele>145.296387</ele>
        <time>2011-05-08T07:18:58Z</time>
      </trkpt>
      <trkpt lat="44.21051" lon="0.67968">
        <ele>141.45105</ele>
        <time>2011-05-08T07:19:10Z</time>
      </trkpt>
      <trkpt lat="44.2112" lon="0.67982">
        <ele>144.335205</ele>
        <time>2011-05-08T07:19:21Z</time>
      </trkpt>
      <trkpt lat="44.21146" lon="0.67965">
        <ele>146.738403</ele>
        <time>2011-05-08T07:19:31Z</time>
      </trkpt>
      <trkpt lat="44.21172" lon="0.6793">
        <ele>152.025757</ele>
        <time>2011-05-08T07:19:45Z</time>
      </trkpt>
      <trkpt lat="44.21209" lon="0.67921">
        <ele>152.986938</ele>
        <time>2011-05-08T07:20:00Z</time>
      </trkpt>
      <trkpt lat="44.21243" lon="0.67915">
        <ele>153.948364</ele>
        <time>2011-05-08T07:20:12Z</time>
      </trkpt>
      <trkpt lat="44.21302" lon="0.67879">
        <ele>153.467651</ele>
        <time>2011-05-08T07:20:25Z</time>
      </trkpt>
      <trkpt lat="44.2138" lon="0.6783">
        <ele>151.064209</ele>
        <time>2011-05-08T07:20:37Z</time>
      </trkpt>
      <trkpt lat="44.21406" lon="0.67844">
        <ele>150.583618</ele>
        <time>2011-05-08T07:20:42Z</time>
      </trkpt>
      <trkpt lat="44.21436" lon="0.6791">
        <ele>151.544922</ele>
        <time>2011-05-08T07:20:52Z</time>
      </trkpt>
      <trkpt lat="44.21461" lon="0.67913">
        <ele>152.025757</ele>
        <time>2011-05-08T07:20:58Z</time>
      </trkpt>
      <trkpt lat="44.2147" lon="0.67907">
        <ele>152.506348</ele>
        <time>2011-05-08T07:21:00Z</time>
      </trkpt>
      <trkpt lat="44.21517" lon="0.67866">
        <ele>152.025757</ele>
        <time>2011-05-08T07:21:13Z</time>
      </trkpt>
      <trkpt lat="44.21524" lon="0.67861">
        <ele>151.544922</ele>
        <time>2011-05-08T07:21:18Z</time>
      </trkpt>
      <trkpt lat="44.21528" lon="0.67866">
        <ele>151.544922</ele>
        <time>2011-05-08T07:21:22Z</time>
      </trkpt>
      <trkpt lat="44.21546" lon="0.6788">
        <ele>150.103027</ele>
        <time>2011-05-08T07:21:30Z</time>
      </trkpt>
      <trkpt lat="44.21555" lon="0.67887">
        <ele>149.141602</ele>
        <time>2011-05-08T07:21:33Z</time>
      </trkpt>
      <trkpt lat="44.21562" lon="0.67891">
        <ele>148.18042</ele>
        <time>2011-05-08T07:21:35Z</time>
      </trkpt>
      <trkpt lat="44.21577" lon="0.679">
        <ele>147.699707</ele>
        <time>2011-05-08T07:21:40Z</time>
      </trkpt>
      <trkpt lat="44.2159" lon="0.67909">
        <ele>150.103027</ele>
        <time>2011-05-08T07:21:48Z</time>
      </trkpt>
      <trkpt lat="44.21598" lon="0.67911">
        <ele>151.064209</ele>
        <time>2011-05-08T07:21:53Z</time>
      </trkpt>
      <trkpt lat="44.21622" lon="0.67912">
        <ele>154.428955</ele>
        <time>2011-05-08T07:22:03Z</time>
      </trkpt>
      <trkpt lat="44.21628" lon="0.67912">
        <ele>154.428955</ele>
        <time>2011-05-08T07:22:05Z</time>
      </trkpt>
      <trkpt lat="44.21645" lon="0.67934">
        <ele>155.870972</ele>
        <time>2011-05-08T07:22:13Z</time>
      </trkpt>
      <trkpt lat="44.2166" lon="0.67937">
        <ele>155.870972</ele>
        <time>2011-05-08T07:22:16Z</time>
      </trkpt>
      <trkpt lat="44.21705" lon="0.67981">
        <ele>155.870972</ele>
        <time>2011-05-08T07:22:24Z</time>
      </trkpt>
      <trkpt lat="44.21726" lon="0.68009">
        <ele>155.870972</ele>
        <time>2011-05-08T07:22:28Z</time>
      </trkpt>
      <trkpt lat="44.21759" lon="0.68043">
        <ele>159.235474</ele>
        <time>2011-05-08T07:22:38Z</time>
      </trkpt>
      <trkpt lat="44.21779" lon="0.68058">
        <ele>162.600098</ele>
        <time>2011-05-08T07:22:45Z</time>
      </trkpt>
      <trkpt lat="44.21801" lon="0.68078">
        <ele>167.406738</ele>
        <time>2011-05-08T07:22:55Z</time>
      </trkpt>
      <trkpt lat="44.2182" lon="0.68089">
        <ele>170.290649</ele>
        <time>2011-05-08T07:23:02Z</time>
      </trkpt>
      <trkpt lat="44.21837" lon="0.68112">
        <ele>172.213257</ele>
        <time>2011-05-08T07:23:11Z</time>
      </trkpt>
      <trkpt lat="44.21859" lon="0.68113">
        <ele>173.174683</ele>
        <time>2011-05-08T07:23:19Z</time>
      </trkpt>
      <trkpt lat="44.21864" lon="0.68113">
        <ele>173.655273</ele>
        <time>2011-05-08T07:23:21Z</time>
      </trkpt>
      <trkpt lat="44.21875" lon="0.68106">
        <ele>173.174683</ele>
        <time>2011-05-08T07:23:25Z</time>
      </trkpt>
      <trkpt lat="44.21881" lon="0.681">
        <ele>172.213257</ele>
        <time>2011-05-08T07:23:27Z</time>
      </trkpt>
      <trkpt lat="44.21914" lon="0.68091">
        <ele>167.887329</ele>
        <time>2011-05-08T07:23:35Z</time>
      </trkpt>
      <trkpt lat="44.21922" lon="0.68126">
        <ele>166.445313</ele>
        <time>2011-05-08T07:23:44Z</time>
      </trkpt>
      <trkpt lat="44.21935" lon="0.68139">
        <ele>168.848755</ele>
        <time>2011-05-08T07:23:51Z</time>
      </trkpt>
      <trkpt lat="44.2195" lon="0.68149">
        <ele>169.329468</ele>
        <time>2011-05-08T07:23:56Z</time>
      </trkpt>
      <trkpt lat="44.21974" lon="0.68168">
        <ele>167.887329</ele>
        <time>2011-05-08T07:24:02Z</time>
      </trkpt>
      <trkpt lat="44.21984" lon="0.68176">
        <ele>166.926025</ele>
        <time>2011-05-08T07:24:04Z</time>
      </trkpt>
      <trkpt lat="44.2199" lon="0.68197">
        <ele>166.445313</ele>
        <time>2011-05-08T07:24:08Z</time>
      </trkpt>
      <trkpt lat="44.21993" lon="0.6821">
        <ele>166.445313</ele>
        <time>2011-05-08T07:24:10Z</time>
      </trkpt>
      <trkpt lat="44.22008" lon="0.68261">
        <ele>166.445313</ele>
        <time>2011-05-08T07:24:16Z</time>
      </trkpt>
      <trkpt lat="44.22028" lon="0.68276">
        <ele>165.964722</ele>
        <time>2011-05-08T07:24:21Z</time>
      </trkpt>
      <trkpt lat="44.22051" lon="0.6828">
        <ele>165.003418</ele>
        <time>2011-05-08T07:24:29Z</time>
      </trkpt>
      <trkpt lat="44.2206" lon="0.68285">
        <ele>164.522705</ele>
        <time>2011-05-08T07:24:31Z</time>
      </trkpt>
      <trkpt lat="44.22075" lon="0.68292">
        <ele>163.080811</ele>
        <time>2011-05-08T07:24:34Z</time>
      </trkpt>
      <trkpt lat="44.22086" lon="0.68314">
        <ele>162.119507</ele>
        <time>2011-05-08T07:24:40Z</time>
      </trkpt>
      <trkpt lat="44.22096" lon="0.68327">
        <ele>164.522705</ele>
        <time>2011-05-08T07:24:52Z</time>
      </trkpt>
      <trkpt lat="44.22106" lon="0.68336">
        <ele>166.926025</ele>
        <time>2011-05-08T07:25:12Z</time>
      </trkpt>
      <trkpt lat="44.22107" lon="0.68344">
        <ele>167.406738</ele>
        <time>2011-05-08T07:25:18Z</time>
      </trkpt>
      <trkpt lat="44.22108" lon="0.68348">
        <ele>167.406738</ele>
        <time>2011-05-08T07:25:20Z</time>
      </trkpt>
      <trkpt lat="44.22108" lon="0.68351">
        <ele>167.406738</ele>
        <time>2011-05-08T07:25:22Z</time>
      </trkpt>
      <trkpt lat="44.22109" lon="0.68362">
        <ele>168.848755</ele>
        <time>2011-05-08T07:25:32Z</time>
      </trkpt>
      <trkpt lat="44.22108" lon="0.68378">
        <ele>165.964722</ele>
        <time>2011-05-08T07:25:44Z</time>
      </trkpt>
      <trkpt lat="44.22105" lon="0.6838">
        <ele>165.003418</ele>
        <time>2011-05-08T07:25:53Z</time>
      </trkpt>
      <trkpt lat="44.22104" lon="0.68379">
        <ele>164.522705</ele>
        <time>2011-05-08T07:25:55Z</time>
      </trkpt>
      <trkpt lat="44.22098" lon="0.68382">
        <ele>164.522705</ele>
        <time>2011-05-08T07:25:59Z</time>
      </trkpt>
      <trkpt lat="44.22092" lon="0.684">
        <ele>166.445313</ele>
        <time>2011-05-08T07:26:07Z</time>
      </trkpt>
      <trkpt lat="44.22093" lon="0.68405">
        <ele>167.406738</ele>
        <time>2011-05-08T07:26:09Z</time>
      </trkpt>
      <trkpt lat="44.22092" lon="0.68412">
        <ele>167.887329</ele>
        <time>2011-05-08T07:26:13Z</time>
      </trkpt>
      <trkpt lat="44.22074" lon="0.68423">
        <ele>167.406738</ele>
        <time>2011-05-08T07:26:23Z</time>
      </trkpt>
      <trkpt lat="44.2206" lon="0.6843">
        <ele>167.406738</ele>
        <time>2011-05-08T07:26:28Z</time>
      </trkpt>
      <trkpt lat="44.22045" lon="0.68437">
        <ele>169.810059</ele>
        <time>2011-05-08T07:26:34Z</time>
      </trkpt>
      <trkpt lat="44.22022" lon="0.68442">
        <ele>173.174683</ele>
        <time>2011-05-08T07:26:43Z</time>
      </trkpt>
      <trkpt lat="44.22012" lon="0.68447">
        <ele>174.616577</ele>
        <time>2011-05-08T07:26:47Z</time>
      </trkpt>
      <trkpt lat="44.22003" lon="0.6845">
        <ele>176.058594</ele>
        <time>2011-05-08T07:26:50Z</time>
      </trkpt>
      <trkpt lat="44.22008" lon="0.68473">
        <ele>177.981201</ele>
        <time>2011-05-08T07:26:57Z</time>
      </trkpt>
      <trkpt lat="44.2201" lon="0.68478">
        <ele>177.981201</ele>
        <time>2011-05-08T07:26:58Z</time>
      </trkpt>
      <trkpt lat="44.22017" lon="0.68494">
        <ele>178.942627</ele>
        <time>2011-05-08T07:27:01Z</time>
      </trkpt>
      <trkpt lat="44.22014" lon="0.68533">
        <ele>183.268433</ele>
        <time>2011-05-08T07:27:10Z</time>
      </trkpt>
      <trkpt lat="44.2202" lon="0.6854">
        <ele>185.191162</ele>
        <time>2011-05-08T07:27:13Z</time>
      </trkpt>
      <trkpt lat="44.22026" lon="0.68543">
        <ele>185.671753</ele>
        <time>2011-05-08T07:27:15Z</time>
      </trkpt>
      <trkpt lat="44.22038" lon="0.68576">
        <ele>187.59436</ele>
        <time>2011-05-08T07:27:21Z</time>
      </trkpt>
      <trkpt lat="44.22043" lon="0.686">
        <ele>189.516968</ele>
        <time>2011-05-08T07:27:26Z</time>
      </trkpt>
      <trkpt lat="44.2207" lon="0.68622">
        <ele>190.958984</ele>
        <time>2011-05-08T07:27:35Z</time>
      </trkpt>
      <trkpt lat="44.22084" lon="0.68652">
        <ele>189.997681</ele>
        <time>2011-05-08T07:27:41Z</time>
      </trkpt>
      <trkpt lat="44.2209" lon="0.68674">
        <ele>191.439575</ele>
        <time>2011-05-08T07:27:45Z</time>
      </trkpt>
      <trkpt lat="44.22106" lon="0.68717">
        <ele>196.246338</ele>
        <time>2011-05-08T07:27:54Z</time>
      </trkpt>
      <trkpt lat="44.22108" lon="0.68752">
        <ele>198.168945</ele>
        <time>2011-05-08T07:28:00Z</time>
      </trkpt>
      <trkpt lat="44.22115" lon="0.68774">
        <ele>199.130127</ele>
        <time>2011-05-08T07:28:04Z</time>
      </trkpt>
      <trkpt lat="44.22121" lon="0.68798">
        <ele>200.091675</ele>
        <time>2011-05-08T07:28:09Z</time>
      </trkpt>
      <trkpt lat="44.22126" lon="0.6882">
        <ele>202.014282</ele>
        <time>2011-05-08T07:28:13Z</time>
      </trkpt>
      <trkpt lat="44.22134" lon="0.6886">
        <ele>204.898071</ele>
        <time>2011-05-08T07:28:22Z</time>
      </trkpt>
      <trkpt lat="44.22136" lon="0.68876">
        <ele>208.262817</ele>
        <time>2011-05-08T07:28:26Z</time>
      </trkpt>
      <trkpt lat="44.22139" lon="0.68894">
        <ele>212.588623</ele>
        <time>2011-05-08T07:28:31Z</time>
      </trkpt>
      <trkpt lat="44.22142" lon="0.68915">
        <ele>217.875977</ele>
        <time>2011-05-08T07:28:37Z</time>
      </trkpt>
      <trkpt lat="44.2214" lon="0.68943">
        <ele>222.682495</ele>
        <time>2011-05-08T07:28:48Z</time>
      </trkpt>
      <trkpt lat="44.22137" lon="0.68958">
        <ele>225.085938</ele>
        <time>2011-05-08T07:28:53Z</time>
      </trkpt>
      <trkpt lat="44.22134" lon="0.68971">
        <ele>226.047119</ele>
        <time>2011-05-08T07:28:57Z</time>
      </trkpt>
      <trkpt lat="44.22128" lon="0.69001">
        <ele>227.489136</ele>
        <time>2011-05-08T07:29:05Z</time>
      </trkpt>
      <trkpt lat="44.2213" lon="0.69047">
        <ele>226.527832</ele>
        <time>2011-05-08T07:29:17Z</time>
      </trkpt>
      <trkpt lat="44.22129" lon="0.69052">
        <ele>226.527832</ele>
        <time>2011-05-08T07:29:18Z</time>
      </trkpt>
      <trkpt lat="44.2213" lon="0.69068">
        <ele>226.527832</ele>
        <time>2011-05-08T07:29:22Z</time>
      </trkpt>
      <trkpt lat="44.22124" lon="0.69083">
        <ele>225.566528</ele>
        <time>2011-05-08T07:29:27Z</time>
      </trkpt>
      <trkpt lat="44.22089" lon="0.69138">
        <ele>203.93689</ele>
        <time>2011-05-08T07:29:39Z</time>
      </trkpt>
      <trkpt lat="44.22048" lon="0.69189">
        <ele>195.284912</ele>
        <time>2011-05-08T07:29:53Z</time>
      </trkpt>
      <trkpt lat="44.22013" lon="0.69228">
        <ele>189.516968</ele>
        <time>2011-05-08T07:30:05Z</time>
      </trkpt>
      <trkpt lat="44.21978" lon="0.69257">
        <ele>185.671753</ele>
        <time>2011-05-08T07:30:17Z</time>
      </trkpt>
      <trkpt lat="44.21936" lon="0.69294">
        <ele>181.345825</ele>
        <time>2011-05-08T07:30:31Z</time>
      </trkpt>
      <trkpt lat="44.21893" lon="0.69334">
        <ele>180.384521</ele>
        <time>2011-05-08T07:30:46Z</time>
      </trkpt>
      <trkpt lat="44.21874" lon="0.69365">
        <ele>177.981201</ele>
        <time>2011-05-08T07:30:54Z</time>
      </trkpt>
      <trkpt lat="44.21854" lon="0.69457">
        <ele>176.058594</ele>
        <time>2011-05-08T07:31:10Z</time>
      </trkpt>
      <trkpt lat="44.21853" lon="0.69462">
        <ele>175.577881</ele>
        <time>2011-05-08T07:31:11Z</time>
      </trkpt>
      <trkpt lat="44.21845" lon="0.69501">
        <ele>175.577881</ele>
        <time>2011-05-08T07:31:18Z</time>
      </trkpt>
      <trkpt lat="44.2184" lon="0.69536">
        <ele>174.616577</ele>
        <time>2011-05-08T07:31:24Z</time>
      </trkpt>
      <trkpt lat="44.21837" lon="0.69554">
        <ele>174.616577</ele>
        <time>2011-05-08T07:31:27Z</time>
      </trkpt>
      <trkpt lat="44.21835" lon="0.69566">
        <ele>174.135864</ele>
        <time>2011-05-08T07:31:29Z</time>
      </trkpt>
      <trkpt lat="44.21826" lon="0.69621">
        <ele>172.69397</ele>
        <time>2011-05-08T07:31:37Z</time>
      </trkpt>
      <trkpt lat="44.21807" lon="0.69685">
        <ele>171.732666</ele>
        <time>2011-05-08T07:31:46Z</time>
      </trkpt>
      <trkpt lat="44.218" lon="0.69832">
        <ele>167.406738</ele>
        <time>2011-05-08T07:32:01Z</time>
      </trkpt>
      <trkpt lat="44.21792" lon="0.69938">
        <ele>162.600098</ele>
        <time>2011-05-08T07:32:10Z</time>
      </trkpt>
      <trkpt lat="44.21792" lon="0.69957">
        <ele>161.158203</ele>
        <time>2011-05-08T07:32:13Z</time>
      </trkpt>
      <trkpt lat="44.218" lon="0.69967">
        <ele>159.716187</ele>
        <time>2011-05-08T07:32:17Z</time>
      </trkpt>
      <trkpt lat="44.21834" lon="0.69936">
        <ele>157.793579</ele>
        <time>2011-05-08T07:32:27Z</time>
      </trkpt>
      <trkpt lat="44.21856" lon="0.69916">
        <ele>156.351563</ele>
        <time>2011-05-08T07:32:32Z</time>
      </trkpt>
      <trkpt lat="44.21895" lon="0.69877">
        <ele>153.467651</ele>
        <time>2011-05-08T07:32:40Z</time>
      </trkpt>
      <trkpt lat="44.21908" lon="0.6986">
        <ele>152.025757</ele>
        <time>2011-05-08T07:32:43Z</time>
      </trkpt>
      <trkpt lat="44.21931" lon="0.69847">
        <ele>150.583618</ele>
        <time>2011-05-08T07:32:47Z</time>
      </trkpt>
      <trkpt lat="44.21963" lon="0.69855">
        <ele>150.103027</ele>
        <time>2011-05-08T07:32:52Z</time>
      </trkpt>
      <trkpt lat="44.21988" lon="0.69863">
        <ele>150.103027</ele>
        <time>2011-05-08T07:32:56Z</time>
      </trkpt>
      <trkpt lat="44.22011" lon="0.69875">
        <ele>150.103027</ele>
        <time>2011-05-08T07:33:00Z</time>
      </trkpt>
      <trkpt lat="44.22075" lon="0.69932">
        <ele>152.025757</ele>
        <time>2011-05-08T07:33:16Z</time>
      </trkpt>
      <trkpt lat="44.22112" lon="0.69951">
        <ele>154.428955</ele>
        <time>2011-05-08T07:33:31Z</time>
      </trkpt>
      <trkpt lat="44.22141" lon="0.69961">
        <ele>156.832153</ele>
        <time>2011-05-08T07:33:45Z</time>
      </trkpt>
      <trkpt lat="44.22156" lon="0.69915">
        <ele>158.754761</ele>
        <time>2011-05-08T07:34:00Z</time>
      </trkpt>
      <trkpt lat="44.22171" lon="0.6986">
        <ele>159.716187</ele>
        <time>2011-05-08T07:34:14Z</time>
      </trkpt>
      <trkpt lat="44.22173" lon="0.69854">
        <ele>159.235474</ele>
        <time>2011-05-08T07:34:15Z</time>
      </trkpt>
      <trkpt lat="44.22203" lon="0.69749">
        <ele>156.832153</ele>
        <time>2011-05-08T07:34:30Z</time>
      </trkpt>
      <trkpt lat="44.22228" lon="0.6974">
        <ele>154.428955</ele>
        <time>2011-05-08T07:34:36Z</time>
      </trkpt>
      <trkpt lat="44.22318" lon="0.69817">
        <ele>152.986938</ele>
        <time>2011-05-08T07:34:52Z</time>
      </trkpt>
      <trkpt lat="44.22337" lon="0.69836">
        <ele>152.986938</ele>
        <time>2011-05-08T07:34:56Z</time>
      </trkpt>
      <trkpt lat="44.22403" lon="0.69893">
        <ele>152.986938</ele>
        <time>2011-05-08T07:35:09Z</time>
      </trkpt>
      <trkpt lat="44.22421" lon="0.69912">
        <ele>153.467651</ele>
        <time>2011-05-08T07:35:13Z</time>
      </trkpt>
      <trkpt lat="44.22429" lon="0.69922">
        <ele>153.467651</ele>
        <time>2011-05-08T07:35:15Z</time>
      </trkpt>
      <trkpt lat="44.22448" lon="0.69921">
        <ele>154.428955</ele>
        <time>2011-05-08T07:35:20Z</time>
      </trkpt>
      <trkpt lat="44.22472" lon="0.69883">
        <ele>153.948364</ele>
        <time>2011-05-08T07:35:28Z</time>
      </trkpt>
      <trkpt lat="44.22479" lon="0.69875">
        <ele>153.467651</ele>
        <time>2011-05-08T07:35:30Z</time>
      </trkpt>
      <trkpt lat="44.22513" lon="0.69848">
        <ele>152.025757</ele>
        <time>2011-05-08T07:35:38Z</time>
      </trkpt>
      <trkpt lat="44.22553" lon="0.6982">
        <ele>147.218994</ele>
        <time>2011-05-08T07:35:49Z</time>
      </trkpt>
      <trkpt lat="44.22555" lon="0.6982">
        <ele>147.218994</ele>
        <time>2011-05-08T07:35:50Z</time>
      </trkpt>
      <trkpt lat="44.22575" lon="0.69829">
        <ele>147.218994</ele>
        <time>2011-05-08T07:36:02Z</time>
      </trkpt>
      <trkpt lat="44.2258" lon="0.69829">
        <ele>148.18042</ele>
        <time>2011-05-08T07:36:05Z</time>
      </trkpt>
      <trkpt lat="44.22589" lon="0.69835">
        <ele>150.103027</ele>
        <time>2011-05-08T07:36:12Z</time>
      </trkpt>
      <trkpt lat="44.22592" lon="0.69837">
        <ele>150.583618</ele>
        <time>2011-05-08T07:36:14Z</time>
      </trkpt>
      <trkpt lat="44.226" lon="0.69849">
        <ele>156.351563</ele>
        <time>2011-05-08T07:36:22Z</time>
      </trkpt>
      <trkpt lat="44.22623" lon="0.69879">
        <ele>161.638916</ele>
        <time>2011-05-08T07:36:37Z</time>
      </trkpt>
      <trkpt lat="44.22644" lon="0.69899">
        <ele>161.638916</ele>
        <time>2011-05-08T07:36:43Z</time>
      </trkpt>
      <trkpt lat="44.22679" lon="0.69912">
        <ele>160.67749</ele>
        <time>2011-05-08T07:36:51Z</time>
      </trkpt>
      <trkpt lat="44.22698" lon="0.69913">
        <ele>161.158203</ele>
        <time>2011-05-08T07:36:56Z</time>
      </trkpt>
      <trkpt lat="44.22706" lon="0.69913">
        <ele>161.638916</ele>
        <time>2011-05-08T07:36:58Z</time>
      </trkpt>
      <trkpt lat="44.22714" lon="0.69913">
        <ele>161.158203</ele>
        <time>2011-05-08T07:37:00Z</time>
      </trkpt>
      <trkpt lat="44.22761" lon="0.69916">
        <ele>156.351563</ele>
        <time>2011-05-08T07:37:09Z</time>
      </trkpt>
      <trkpt lat="44.22812" lon="0.69912">
        <ele>150.583618</ele>
        <time>2011-05-08T07:37:16Z</time>
      </trkpt>
      <trkpt lat="44.22829" lon="0.69928">
        <ele>146.257813</ele>
        <time>2011-05-08T07:37:23Z</time>
      </trkpt>
      <trkpt lat="44.22827" lon="0.69953">
        <ele>146.257813</ele>
        <time>2011-05-08T07:37:28Z</time>
      </trkpt>
      <trkpt lat="44.22846" lon="0.69968">
        <ele>144.815796</ele>
        <time>2011-05-08T07:37:34Z</time>
      </trkpt>
      <trkpt lat="44.22868" lon="0.69971">
        <ele>144.335205</ele>
        <time>2011-05-08T07:37:39Z</time>
      </trkpt>
      <trkpt lat="44.22883" lon="0.69978">
        <ele>142.412476</ele>
        <time>2011-05-08T07:37:44Z</time>
      </trkpt>
      <trkpt lat="44.22925" lon="0.69988">
        <ele>134.241211</ele>
        <time>2011-05-08T07:37:53Z</time>
      </trkpt>
      <trkpt lat="44.22949" lon="0.69984">
        <ele>129.434692</ele>
        <time>2011-05-08T07:37:57Z</time>
      </trkpt>
      <trkpt lat="44.22987" lon="0.6998">
        <ele>122.224731</ele>
        <time>2011-05-08T07:38:06Z</time>
      </trkpt>
      <trkpt lat="44.22997" lon="0.69974">
        <ele>119.34082</ele>
        <time>2011-05-08T07:38:09Z</time>
      </trkpt>
      <trkpt lat="44.23009" lon="0.69969">
        <ele>117.418213</ele>
        <time>2011-05-08T07:38:12Z</time>
      </trkpt>
      <trkpt lat="44.23027" lon="0.69963">
        <ele>113.572998</ele>
        <time>2011-05-08T07:38:16Z</time>
      </trkpt>
      <trkpt lat="44.23039" lon="0.69959">
        <ele>111.650269</ele>
        <time>2011-05-08T07:38:18Z</time>
      </trkpt>
      <trkpt lat="44.23086" lon="0.69932">
        <ele>103.959717</ele>
        <time>2011-05-08T07:38:26Z</time>
      </trkpt>
      <trkpt lat="44.23105" lon="0.69917">
        <ele>100.114502</ele>
        <time>2011-05-08T07:38:30Z</time>
      </trkpt>
      <trkpt lat="44.23124" lon="0.69904">
        <ele>97.230469</ele>
        <time>2011-05-08T07:38:34Z</time>
      </trkpt>
      <trkpt lat="44.2318" lon="0.69874">
        <ele>90.501343</ele>
        <time>2011-05-08T07:38:43Z</time>
      </trkpt>
      <trkpt lat="44.2319" lon="0.69837">
        <ele>85.69458</ele>
        <time>2011-05-08T07:38:49Z</time>
      </trkpt>
      <trkpt lat="44.23211" lon="0.69813">
        <ele>82.810791</ele>
        <time>2011-05-08T07:38:54Z</time>
      </trkpt>
      <trkpt lat="44.23248" lon="0.69805">
        <ele>81.849365</ele>
        <time>2011-05-08T07:39:02Z</time>
      </trkpt>
      <trkpt lat="44.23259" lon="0.6981">
        <ele>81.368774</ele>
        <time>2011-05-08T07:39:04Z</time>
      </trkpt>
      <trkpt lat="44.23304" lon="0.69816">
        <ele>77.523438</ele>
        <time>2011-05-08T07:39:11Z</time>
      </trkpt>
      <trkpt lat="44.23336" lon="0.69806">
        <ele>74.639526</ele>
        <time>2011-05-08T07:39:15Z</time>
      </trkpt>
      <trkpt lat="44.23418" lon="0.6972">
        <ele>70.313477</ele>
        <time>2011-05-08T07:39:27Z</time>
      </trkpt>
      <trkpt lat="44.23475" lon="0.69662">
        <ele>68.871582</ele>
        <time>2011-05-08T07:39:36Z</time>
      </trkpt>
      <trkpt lat="44.235" lon="0.69655">
        <ele>68.871582</ele>
        <time>2011-05-08T07:39:42Z</time>
      </trkpt>
      <trkpt lat="44.23502" lon="0.69661">
        <ele>68.390869</ele>
        <time>2011-05-08T07:39:43Z</time>
      </trkpt>
      <trkpt lat="44.23527" lon="0.69721">
        <ele>70.313477</ele>
        <time>2011-05-08T07:39:58Z</time>
      </trkpt>
      <trkpt lat="44.23541" lon="0.69756">
        <ele>73.197632</ele>
        <time>2011-05-08T07:40:10Z</time>
      </trkpt>
      <trkpt lat="44.23547" lon="0.69776">
        <ele>75.120239</ele>
        <time>2011-05-08T07:40:17Z</time>
      </trkpt>
      <trkpt lat="44.23558" lon="0.69808">
        <ele>78.484741</ele>
        <time>2011-05-08T07:40:31Z</time>
      </trkpt>
      <trkpt lat="44.23559" lon="0.69852">
        <ele>82.330078</ele>
        <time>2011-05-08T07:40:48Z</time>
      </trkpt>
      <trkpt lat="44.23557" lon="0.69891">
        <ele>84.733398</ele>
        <time>2011-05-08T07:41:02Z</time>
      </trkpt>
      <trkpt lat="44.23555" lon="0.69921">
        <ele>86.175293</ele>
        <time>2011-05-08T07:41:15Z</time>
      </trkpt>
      <trkpt lat="44.23552" lon="0.69957">
        <ele>88.098022</ele>
        <time>2011-05-08T07:41:30Z</time>
      </trkpt>
      <trkpt lat="44.23551" lon="0.69994">
        <ele>90.981934</ele>
        <time>2011-05-08T07:41:45Z</time>
      </trkpt>
      <trkpt lat="44.23553" lon="0.7">
        <ele>91.943237</ele>
        <time>2011-05-08T07:41:48Z</time>
      </trkpt>
      <trkpt lat="44.23579" lon="0.70019">
        <ele>93.865845</ele>
        <time>2011-05-08T07:41:59Z</time>
      </trkpt>
      <trkpt lat="44.23619" lon="0.70063">
        <ele>93.385132</ele>
        <time>2011-05-08T07:42:13Z</time>
      </trkpt>
      <trkpt lat="44.23626" lon="0.70072">
        <ele>92.42395</ele>
        <time>2011-05-08T07:42:15Z</time>
      </trkpt>
      <trkpt lat="44.23651" lon="0.70097">
        <ele>89.059326</ele>
        <time>2011-05-08T07:42:20Z</time>
      </trkpt>
      <trkpt lat="44.23669" lon="0.7012">
        <ele>85.69458</ele>
        <time>2011-05-08T07:42:24Z</time>
      </trkpt>
      <trkpt lat="44.23695" lon="0.70167">
        <ele>81.849365</ele>
        <time>2011-05-08T07:42:34Z</time>
      </trkpt>
      <trkpt lat="44.23721" lon="0.70191">
        <ele>83.771973</ele>
        <time>2011-05-08T07:42:45Z</time>
      </trkpt>
      <trkpt lat="44.23724" lon="0.70194">
        <ele>84.252686</ele>
        <time>2011-05-08T07:42:46Z</time>
      </trkpt>
      <trkpt lat="44.23728" lon="0.70202">
        <ele>84.733398</ele>
        <time>2011-05-08T07:42:48Z</time>
      </trkpt>
      <trkpt lat="44.23744" lon="0.70233">
        <ele>87.617188</ele>
        <time>2011-05-08T07:42:55Z</time>
      </trkpt>
      <trkpt lat="44.23753" lon="0.7024">
        <ele>88.098022</ele>
        <time>2011-05-08T07:42:58Z</time>
      </trkpt>
      <trkpt lat="44.23766" lon="0.70235">
        <ele>88.098022</ele>
        <time>2011-05-08T07:43:02Z</time>
      </trkpt>
      <trkpt lat="44.23776" lon="0.70248">
        <ele>86.656006</ele>
        <time>2011-05-08T07:43:06Z</time>
      </trkpt>
      <trkpt lat="44.23792" lon="0.70272">
        <ele>83.771973</ele>
        <time>2011-05-08T07:43:12Z</time>
      </trkpt>
      <trkpt lat="44.23798" lon="0.70278">
        <ele>83.771973</ele>
        <time>2011-05-08T07:43:14Z</time>
      </trkpt>
      <trkpt lat="44.2381" lon="0.70273">
        <ele>83.291382</ele>
        <time>2011-05-08T07:43:18Z</time>
      </trkpt>
      <trkpt lat="44.23819" lon="0.70265">
        <ele>82.810791</ele>
        <time>2011-05-08T07:43:21Z</time>
      </trkpt>
      <trkpt lat="44.23832" lon="0.70264">
        <ele>83.291382</ele>
        <time>2011-05-08T07:43:24Z</time>
      </trkpt>
      <trkpt lat="44.23866" lon="0.70283">
        <ele>82.810791</ele>
        <time>2011-05-08T07:43:32Z</time>
      </trkpt>
      <trkpt lat="44.23892" lon="0.70299">
        <ele>81.849365</ele>
        <time>2011-05-08T07:43:38Z</time>
      </trkpt>
      <trkpt lat="44.23905" lon="0.70308">
        <ele>80.888184</ele>
        <time>2011-05-08T07:43:41Z</time>
      </trkpt>
      <trkpt lat="44.23919" lon="0.70325">
        <ele>79.446045</ele>
        <time>2011-05-08T07:43:45Z</time>
      </trkpt>
      <trkpt lat="44.23935" lon="0.70346">
        <ele>78.965454</ele>
        <time>2011-05-08T07:43:50Z</time>
      </trkpt>
      <trkpt lat="44.23959" lon="0.7038">
        <ele>78.965454</ele>
        <time>2011-05-08T07:43:59Z</time>
      </trkpt>
      <trkpt lat="44.23986" lon="0.70418">
        <ele>75.120239</ele>
        <time>2011-05-08T07:44:07Z</time>
      </trkpt>
      <trkpt lat="44.24014" lon="0.70465">
        <ele>70.313477</ele>
        <time>2011-05-08T07:44:17Z</time>
      </trkpt>
      <trkpt lat="44.24026" lon="0.70487">
        <ele>69.352295</ele>
        <time>2011-05-08T07:44:22Z</time>
      </trkpt>
      <trkpt lat="44.24042" lon="0.70512">
        <ele>70.794189</ele>
        <time>2011-05-08T07:44:26Z</time>
      </trkpt>
      <trkpt lat="44.24058" lon="0.7054">
        <ele>71.274902</ele>
        <time>2011-05-08T07:44:30Z</time>
      </trkpt>
      <trkpt lat="44.24066" lon="0.70566">
        <ele>72.236206</ele>
        <time>2011-05-08T07:44:34Z</time>
      </trkpt>
      <trkpt lat="44.24082" lon="0.70618">
        <ele>77.523438</ele>
        <time>2011-05-08T07:44:44Z</time>
      </trkpt>
      <trkpt lat="44.24078" lon="0.70653">
        <ele>77.042847</ele>
        <time>2011-05-08T07:44:50Z</time>
      </trkpt>
      <trkpt lat="44.24055" lon="0.70707">
        <ele>80.888184</ele>
        <time>2011-05-08T07:45:03Z</time>
      </trkpt>
      <trkpt lat="44.24048" lon="0.70721">
        <ele>81.368774</ele>
        <time>2011-05-08T07:45:06Z</time>
      </trkpt>
      <trkpt lat="44.24012" lon="0.7078">
        <ele>83.771973</ele>
        <time>2011-05-08T07:45:21Z</time>
      </trkpt>
      <trkpt lat="44.2399" lon="0.70811">
        <ele>84.252686</ele>
        <time>2011-05-08T07:45:30Z</time>
      </trkpt>
      <trkpt lat="44.23951" lon="0.70859">
        <ele>85.69458</ele>
        <time>2011-05-08T07:45:44Z</time>
      </trkpt>
      <trkpt lat="44.23914" lon="0.70904">
        <ele>88.578735</ele>
        <time>2011-05-08T07:45:58Z</time>
      </trkpt>
      <trkpt lat="44.23866" lon="0.70961">
        <ele>89.539917</ele>
        <time>2011-05-08T07:46:15Z</time>
      </trkpt>
      <trkpt lat="44.2383" lon="0.71007">
        <ele>89.539917</ele>
        <time>2011-05-08T07:46:29Z</time>
      </trkpt>
      <trkpt lat="44.23792" lon="0.7104">
        <ele>91.943237</ele>
        <time>2011-05-08T07:46:42Z</time>
      </trkpt>
      <trkpt lat="44.2375" lon="0.71062">
        <ele>96.269287</ele>
        <time>2011-05-08T07:46:58Z</time>
      </trkpt>
      <trkpt lat="44.23724" lon="0.71075">
        <ele>98.672485</ele>
        <time>2011-05-08T07:47:11Z</time>
      </trkpt>
      <trkpt lat="44.23692" lon="0.71093">
        <ele>100.595093</ele>
        <time>2011-05-08T07:47:26Z</time>
      </trkpt>
      <trkpt lat="44.23662" lon="0.71115">
        <ele>102.037109</ele>
        <time>2011-05-08T07:47:39Z</time>
      </trkpt>
      <trkpt lat="44.23631" lon="0.71139">
        <ele>102.998291</ele>
        <time>2011-05-08T07:47:52Z</time>
      </trkpt>
      <trkpt lat="44.23608" lon="0.71164">
        <ele>103.959717</ele>
        <time>2011-05-08T07:48:04Z</time>
      </trkpt>
      <trkpt lat="44.23586" lon="0.71189">
        <ele>106.843628</ele>
        <time>2011-05-08T07:48:17Z</time>
      </trkpt>
      <trkpt lat="44.23547" lon="0.7123">
        <ele>107.324341</ele>
        <time>2011-05-08T07:48:32Z</time>
      </trkpt>
      <trkpt lat="44.23531" lon="0.71249">
        <ele>110.208252</ele>
        <time>2011-05-08T07:48:42Z</time>
      </trkpt>
      <trkpt lat="44.23516" lon="0.71261">
        <ele>113.092285</ele>
        <time>2011-05-08T07:48:52Z</time>
      </trkpt>
      <trkpt lat="44.23492" lon="0.71276">
        <ele>116.456787</ele>
        <time>2011-05-08T07:49:05Z</time>
      </trkpt>
      <trkpt lat="44.23464" lon="0.71294">
        <ele>118.860107</ele>
        <time>2011-05-08T07:49:18Z</time>
      </trkpt>
      <trkpt lat="44.23448" lon="0.71312">
        <ele>119.34082</ele>
        <time>2011-05-08T07:49:29Z</time>
      </trkpt>
      <trkpt lat="44.23433" lon="0.71326">
        <ele>119.34082</ele>
        <time>2011-05-08T07:49:38Z</time>
      </trkpt>
      <trkpt lat="44.23413" lon="0.71347">
        <ele>121.26355</ele>
        <time>2011-05-08T07:49:49Z</time>
      </trkpt>
      <trkpt lat="44.23409" lon="0.71354">
        <ele>122.224731</ele>
        <time>2011-05-08T07:49:52Z</time>
      </trkpt>
      <trkpt lat="44.23405" lon="0.71361">
        <ele>124.147339</ele>
        <time>2011-05-08T07:49:56Z</time>
      </trkpt>
      <trkpt lat="44.23401" lon="0.71376">
        <ele>127.992554</ele>
        <time>2011-05-08T07:50:04Z</time>
      </trkpt>
      <trkpt lat="44.23399" lon="0.7139">
        <ele>132.318604</ele>
        <time>2011-05-08T07:50:14Z</time>
      </trkpt>
      <trkpt lat="44.23395" lon="0.71408">
        <ele>135.202515</ele>
        <time>2011-05-08T07:50:23Z</time>
      </trkpt>
      <trkpt lat="44.23391" lon="0.71425">
        <ele>139.047852</ele>
        <time>2011-05-08T07:50:35Z</time>
      </trkpt>
      <trkpt lat="44.23391" lon="0.71426">
        <ele>139.047852</ele>
        <time>2011-05-08T07:50:36Z</time>
      </trkpt>
      <trkpt lat="44.23391" lon="0.71443">
        <ele>141.45105</ele>
        <time>2011-05-08T07:50:47Z</time>
      </trkpt>
      <trkpt lat="44.2339" lon="0.71457">
        <ele>141.931763</ele>
        <time>2011-05-08T07:50:56Z</time>
      </trkpt>
      <trkpt lat="44.2339" lon="0.71473">
        <ele>143.85437</ele>
        <time>2011-05-08T07:51:07Z</time>
      </trkpt>
      <trkpt lat="44.23388" lon="0.71493">
        <ele>145.296387</ele>
        <time>2011-05-08T07:51:25Z</time>
      </trkpt>
      <trkpt lat="44.23388" lon="0.71511">
        <ele>147.218994</ele>
        <time>2011-05-08T07:51:35Z</time>
      </trkpt>
      <trkpt lat="44.23386" lon="0.71512">
        <ele>147.699707</ele>
        <time>2011-05-08T07:51:38Z</time>
      </trkpt>
      <trkpt lat="44.23383" lon="0.71514">
        <ele>146.257813</ele>
        <time>2011-05-08T07:51:46Z</time>
      </trkpt>
      <trkpt lat="44.23375" lon="0.71521">
        <ele>143.373657</ele>
        <time>2011-05-08T07:51:53Z</time>
      </trkpt>
      <trkpt lat="44.23364" lon="0.7153">
        <ele>141.45105</ele>
        <time>2011-05-08T07:52:05Z</time>
      </trkpt>
      <trkpt lat="44.23359" lon="0.71533">
        <ele>142.893066</ele>
        <time>2011-05-08T07:52:11Z</time>
      </trkpt>
      <trkpt lat="44.23357" lon="0.71536">
        <ele>143.85437</ele>
        <time>2011-05-08T07:52:14Z</time>
      </trkpt>
      <trkpt lat="44.23357" lon="0.7154">
        <ele>145.296387</ele>
        <time>2011-05-08T07:52:19Z</time>
      </trkpt>
      <trkpt lat="44.2336" lon="0.71549">
        <ele>148.18042</ele>
        <time>2011-05-08T07:52:28Z</time>
      </trkpt>
      <trkpt lat="44.23361" lon="0.71551">
        <ele>148.661011</ele>
        <time>2011-05-08T07:52:30Z</time>
      </trkpt>
      <trkpt lat="44.23363" lon="0.71555">
        <ele>149.141602</ele>
        <time>2011-05-08T07:52:33Z</time>
      </trkpt>
      <trkpt lat="44.23364" lon="0.71562">
        <ele>150.103027</ele>
        <time>2011-05-08T07:52:37Z</time>
      </trkpt>
      <trkpt lat="44.23364" lon="0.71565">
        <ele>150.583618</ele>
        <time>2011-05-08T07:52:39Z</time>
      </trkpt>
      <trkpt lat="44.23364" lon="0.71589">
        <ele>152.986938</ele>
        <time>2011-05-08T07:52:55Z</time>
      </trkpt>
      <trkpt lat="44.23363" lon="0.71602">
        <ele>154.428955</ele>
        <time>2011-05-08T07:53:06Z</time>
      </trkpt>
      <trkpt lat="44.23364" lon="0.71617">
        <ele>157.793579</ele>
        <time>2011-05-08T07:53:18Z</time>
      </trkpt>
      <trkpt lat="44.23373" lon="0.71635">
        <ele>162.119507</ele>
        <time>2011-05-08T07:53:29Z</time>
      </trkpt>
      <trkpt lat="44.23381" lon="0.71644">
        <ele>163.080811</ele>
        <time>2011-05-08T07:53:36Z</time>
      </trkpt>
      <trkpt lat="44.2339" lon="0.71655">
        <ele>164.522705</ele>
        <time>2011-05-08T07:53:44Z</time>
      </trkpt>
      <trkpt lat="44.23389" lon="0.71658">
        <ele>165.484131</ele>
        <time>2011-05-08T07:53:47Z</time>
      </trkpt>
      <trkpt lat="44.23376" lon="0.71656">
        <ele>167.406738</ele>
        <time>2011-05-08T07:53:59Z</time>
      </trkpt>
      <trkpt lat="44.23364" lon="0.71655">
        <ele>166.926025</ele>
        <time>2011-05-08T07:54:11Z</time>
      </trkpt>
      <trkpt lat="44.23362" lon="0.71656">
        <ele>166.445313</ele>
        <time>2011-05-08T07:54:13Z</time>
      </trkpt>
      <trkpt lat="44.23368" lon="0.71667">
        <ele>165.003418</ele>
        <time>2011-05-08T07:54:22Z</time>
      </trkpt>
      <trkpt lat="44.23374" lon="0.71671">
        <ele>165.003418</ele>
        <time>2011-05-08T07:54:27Z</time>
      </trkpt>
      <trkpt lat="44.23385" lon="0.71678">
        <ele>164.042114</ele>
        <time>2011-05-08T07:54:34Z</time>
      </trkpt>
      <trkpt lat="44.23393" lon="0.71679">
        <ele>163.080811</ele>
        <time>2011-05-08T07:54:38Z</time>
      </trkpt>
      <trkpt lat="44.23423" lon="0.71683">
        <ele>165.003418</ele>
        <time>2011-05-08T07:54:54Z</time>
      </trkpt>
      <trkpt lat="44.23451" lon="0.71686">
        <ele>165.964722</ele>
        <time>2011-05-08T07:55:08Z</time>
      </trkpt>
      <trkpt lat="44.23484" lon="0.71693">
        <ele>165.484131</ele>
        <time>2011-05-08T07:55:21Z</time>
      </trkpt>
      <trkpt lat="44.23527" lon="0.71696">
        <ele>166.926025</ele>
        <time>2011-05-08T07:55:35Z</time>
      </trkpt>
      <trkpt lat="44.23585" lon="0.717">
        <ele>167.887329</ele>
        <time>2011-05-08T07:55:51Z</time>
      </trkpt>
      <trkpt lat="44.23638" lon="0.71707">
        <ele>167.406738</ele>
        <time>2011-05-08T07:56:03Z</time>
      </trkpt>
      <trkpt lat="44.23659" lon="0.71699">
        <ele>165.964722</ele>
        <time>2011-05-08T07:56:07Z</time>
      </trkpt>
      <trkpt lat="44.23683" lon="0.717">
        <ele>166.445313</ele>
        <time>2011-05-08T07:56:13Z</time>
      </trkpt>
      <trkpt lat="44.23706" lon="0.71737">
        <ele>168.848755</ele>
        <time>2011-05-08T07:56:28Z</time>
      </trkpt>
      <trkpt lat="44.23719" lon="0.71763">
        <ele>170.290649</ele>
        <time>2011-05-08T07:56:40Z</time>
      </trkpt>
      <trkpt lat="44.23733" lon="0.71789">
        <ele>172.213257</ele>
        <time>2011-05-08T07:56:54Z</time>
      </trkpt>
      <trkpt lat="44.2375" lon="0.7181">
        <ele>175.09729</ele>
        <time>2011-05-08T07:57:09Z</time>
      </trkpt>
      <trkpt lat="44.23767" lon="0.71835">
        <ele>177.02002</ele>
        <time>2011-05-08T07:57:25Z</time>
      </trkpt>
      <trkpt lat="44.23778" lon="0.71855">
        <ele>179.423218</ele>
        <time>2011-05-08T07:57:37Z</time>
      </trkpt>
      <trkpt lat="44.23795" lon="0.71876">
        <ele>180.865234</ele>
        <time>2011-05-08T07:57:53Z</time>
      </trkpt>
      <trkpt lat="44.23812" lon="0.71898">
        <ele>184.229858</ele>
        <time>2011-05-08T07:58:10Z</time>
      </trkpt>
      <trkpt lat="44.23832" lon="0.71922">
        <ele>186.633179</ele>
        <time>2011-05-08T07:58:27Z</time>
      </trkpt>
      <trkpt lat="44.23856" lon="0.71945">
        <ele>187.11377</ele>
        <time>2011-05-08T07:58:42Z</time>
      </trkpt>
      <trkpt lat="44.23889" lon="0.71955">
        <ele>185.191162</ele>
        <time>2011-05-08T07:58:52Z</time>
      </trkpt>
      <trkpt lat="44.2393" lon="0.71984">
        <ele>185.191162</ele>
        <time>2011-05-08T07:59:04Z</time>
      </trkpt>
      <trkpt lat="44.23959" lon="0.72018">
        <ele>185.191162</ele>
        <time>2011-05-08T07:59:13Z</time>
      </trkpt>
      <trkpt lat="44.23968" lon="0.72023">
        <ele>185.191162</ele>
        <time>2011-05-08T07:59:15Z</time>
      </trkpt>
      <trkpt lat="44.23969" lon="0.72047">
        <ele>184.229858</ele>
        <time>2011-05-08T07:59:21Z</time>
      </trkpt>
      <trkpt lat="44.2393" lon="0.72101">
        <ele>184.710571</ele>
        <time>2011-05-08T07:59:34Z</time>
      </trkpt>
      <trkpt lat="44.23914" lon="0.72122">
        <ele>184.710571</ele>
        <time>2011-05-08T07:59:39Z</time>
      </trkpt>
      <trkpt lat="44.23905" lon="0.7214">
        <ele>184.710571</ele>
        <time>2011-05-08T07:59:43Z</time>
      </trkpt>
      <trkpt lat="44.23895" lon="0.72161">
        <ele>186.152466</ele>
        <time>2011-05-08T07:59:47Z</time>
      </trkpt>
      <trkpt lat="44.23873" lon="0.72194">
        <ele>186.152466</ele>
        <time>2011-05-08T07:59:56Z</time>
      </trkpt>
      <trkpt lat="44.23844" lon="0.72236">
        <ele>185.191162</ele>
        <time>2011-05-08T08:00:07Z</time>
      </trkpt>
      <trkpt lat="44.23812" lon="0.72279">
        <ele>189.997681</ele>
        <time>2011-05-08T08:00:18Z</time>
      </trkpt>
      <trkpt lat="44.23794" lon="0.72322">
        <ele>194.804321</ele>
        <time>2011-05-08T08:00:28Z</time>
      </trkpt>
      <trkpt lat="44.23789" lon="0.72341">
        <ele>194.804321</ele>
        <time>2011-05-08T08:00:31Z</time>
      </trkpt>
      <trkpt lat="44.23781" lon="0.72375">
        <ele>194.804321</ele>
        <time>2011-05-08T08:00:36Z</time>
      </trkpt>
      <trkpt lat="44.23769" lon="0.72449">
        <ele>192.401123</ele>
        <time>2011-05-08T08:00:50Z</time>
      </trkpt>
      <trkpt lat="44.23764" lon="0.72491">
        <ele>190.478394</ele>
        <time>2011-05-08T08:00:59Z</time>
      </trkpt>
      <trkpt lat="44.23762" lon="0.72502">
        <ele>190.478394</ele>
        <time>2011-05-08T08:01:02Z</time>
      </trkpt>
      <trkpt lat="44.23745" lon="0.72557">
        <ele>189.516968</ele>
        <time>2011-05-08T08:01:14Z</time>
      </trkpt>
      <trkpt lat="44.23716" lon="0.7259">
        <ele>191.920288</ele>
        <time>2011-05-08T08:01:24Z</time>
      </trkpt>
      <trkpt lat="44.23711" lon="0.72597">
        <ele>192.401123</ele>
        <time>2011-05-08T08:01:26Z</time>
      </trkpt>
      <trkpt lat="44.23709" lon="0.72609">
        <ele>192.401123</ele>
        <time>2011-05-08T08:01:29Z</time>
      </trkpt>
      <trkpt lat="44.23676" lon="0.7265">
        <ele>188.555786</ele>
        <time>2011-05-08T08:01:37Z</time>
      </trkpt>
      <trkpt lat="44.23636" lon="0.72692">
        <ele>183.749023</ele>
        <time>2011-05-08T08:01:44Z</time>
      </trkpt>
      <trkpt lat="44.23616" lon="0.72725">
        <ele>180.865234</ele>
        <time>2011-05-08T08:01:48Z</time>
      </trkpt>
      <trkpt lat="44.23594" lon="0.7279">
        <ele>175.577881</ele>
        <time>2011-05-08T08:01:57Z</time>
      </trkpt>
      <trkpt lat="44.23571" lon="0.72843">
        <ele>176.058594</ele>
        <time>2011-05-08T08:02:08Z</time>
      </trkpt>
      <trkpt lat="44.23549" lon="0.72858">
        <ele>174.135864</ele>
        <time>2011-05-08T08:02:13Z</time>
      </trkpt>
      <trkpt lat="44.23516" lon="0.72873">
        <ele>172.69397</ele>
        <time>2011-05-08T08:02:19Z</time>
      </trkpt>
      <trkpt lat="44.23437" lon="0.72903">
        <ele>167.406738</ele>
        <time>2011-05-08T08:02:32Z</time>
      </trkpt>
      <trkpt lat="44.23413" lon="0.72912">
        <ele>165.964722</ele>
        <time>2011-05-08T08:02:36Z</time>
      </trkpt>
      <trkpt lat="44.23357" lon="0.72934">
        <ele>162.600098</ele>
        <time>2011-05-08T08:02:44Z</time>
      </trkpt>
      <trkpt lat="44.23327" lon="0.72937">
        <ele>161.158203</ele>
        <time>2011-05-08T08:02:48Z</time>
      </trkpt>
      <trkpt lat="44.23303" lon="0.7293">
        <ele>159.235474</ele>
        <time>2011-05-08T08:02:52Z</time>
      </trkpt>
      <trkpt lat="44.23296" lon="0.72943">
        <ele>157.793579</ele>
        <time>2011-05-08T08:02:56Z</time>
      </trkpt>
      <trkpt lat="44.23299" lon="0.72978">
        <ele>156.832153</ele>
        <time>2011-05-08T08:03:01Z</time>
      </trkpt>
      <trkpt lat="44.23308" lon="0.73031">
        <ele>156.351563</ele>
        <time>2011-05-08T08:03:11Z</time>
      </trkpt>
      <trkpt lat="44.23308" lon="0.73064">
        <ele>158.754761</ele>
        <time>2011-05-08T08:03:24Z</time>
      </trkpt>
      <trkpt lat="44.23308" lon="0.73069">
        <ele>161.158203</ele>
        <time>2011-05-08T08:03:35Z</time>
      </trkpt>
      <trkpt lat="44.23311" lon="0.73077">
        <ele>157.793579</ele>
        <time>2011-05-08T08:10:04Z</time>
      </trkpt>
      <trkpt lat="44.2331" lon="0.73084">
        <ele>156.832153</ele>
        <time>2011-05-08T08:10:08Z</time>
      </trkpt>
      <trkpt lat="44.23291" lon="0.73095">
        <ele>157.312866</ele>
        <time>2011-05-08T08:10:22Z</time>
      </trkpt>
      <trkpt lat="44.23279" lon="0.73102">
        <ele>159.235474</ele>
        <time>2011-05-08T08:10:33Z</time>
      </trkpt>
      <trkpt lat="44.23274" lon="0.73105">
        <ele>159.716187</ele>
        <time>2011-05-08T08:10:38Z</time>
      </trkpt>
      <trkpt lat="44.23259" lon="0.73115">
        <ele>163.080811</ele>
        <time>2011-05-08T08:10:53Z</time>
      </trkpt>
      <trkpt lat="44.23255" lon="0.73119">
        <ele>164.042114</ele>
        <time>2011-05-08T08:10:57Z</time>
      </trkpt>
      <trkpt lat="44.23248" lon="0.73125">
        <ele>165.003418</ele>
        <time>2011-05-08T08:11:04Z</time>
      </trkpt>
      <trkpt lat="44.23243" lon="0.7313">
        <ele>166.445313</ele>
        <time>2011-05-08T08:11:10Z</time>
      </trkpt>
      <trkpt lat="44.2324" lon="0.73132">
        <ele>166.926025</ele>
        <time>2011-05-08T08:11:13Z</time>
      </trkpt>
      <trkpt lat="44.23231" lon="0.73126">
        <ele>167.406738</ele>
        <time>2011-05-08T08:11:23Z</time>
      </trkpt>
      <trkpt lat="44.2322" lon="0.73122">
        <ele>167.887329</ele>
        <time>2011-05-08T08:11:34Z</time>
      </trkpt>
      <trkpt lat="44.23213" lon="0.73122">
        <ele>166.926025</ele>
        <time>2011-05-08T08:11:40Z</time>
      </trkpt>
      <trkpt lat="44.23211" lon="0.73121">
        <ele>166.926025</ele>
        <time>2011-05-08T08:11:42Z</time>
      </trkpt>
      <trkpt lat="44.23192" lon="0.7312">
        <ele>167.887329</ele>
        <time>2011-05-08T08:11:54Z</time>
      </trkpt>
      <trkpt lat="44.23151" lon="0.73111">
        <ele>167.887329</ele>
        <time>2011-05-08T08:12:10Z</time>
      </trkpt>
      <trkpt lat="44.23137" lon="0.73102">
        <ele>166.926025</ele>
        <time>2011-05-08T08:12:14Z</time>
      </trkpt>
      <trkpt lat="44.23065" lon="0.73061">
        <ele>164.042114</ele>
        <time>2011-05-08T08:12:29Z</time>
      </trkpt>
      <trkpt lat="44.23051" lon="0.73054">
        <ele>164.522705</ele>
        <time>2011-05-08T08:12:33Z</time>
      </trkpt>
      <trkpt lat="44.23041" lon="0.73072">
        <ele>165.003418</ele>
        <time>2011-05-08T08:12:38Z</time>
      </trkpt>
      <trkpt lat="44.23026" lon="0.73146">
        <ele>167.406738</ele>
        <time>2011-05-08T08:12:52Z</time>
      </trkpt>
      <trkpt lat="44.23019" lon="0.7318">
        <ele>168.848755</ele>
        <time>2011-05-08T08:13:03Z</time>
      </trkpt>
      <trkpt lat="44.23015" lon="0.732">
        <ele>171.252075</ele>
        <time>2011-05-08T08:13:14Z</time>
      </trkpt>
      <trkpt lat="44.23011" lon="0.73208">
        <ele>173.655273</ele>
        <time>2011-05-08T08:13:20Z</time>
      </trkpt>
      <trkpt lat="44.23009" lon="0.73214">
        <ele>174.616577</ele>
        <time>2011-05-08T08:13:24Z</time>
      </trkpt>
      <trkpt lat="44.23007" lon="0.73218">
        <ele>175.09729</ele>
        <time>2011-05-08T08:13:27Z</time>
      </trkpt>
      <trkpt lat="44.22996" lon="0.73236">
        <ele>177.981201</ele>
        <time>2011-05-08T08:13:41Z</time>
      </trkpt>
      <trkpt lat="44.22989" lon="0.73253">
        <ele>180.865234</ele>
        <time>2011-05-08T08:13:53Z</time>
      </trkpt>
      <trkpt lat="44.22987" lon="0.73259">
        <ele>181.826416</ele>
        <time>2011-05-08T08:13:58Z</time>
      </trkpt>
      <trkpt lat="44.22982" lon="0.7327">
        <ele>184.229858</ele>
        <time>2011-05-08T08:14:07Z</time>
      </trkpt>
      <trkpt lat="44.22979" lon="0.73275">
        <ele>185.191162</ele>
        <time>2011-05-08T08:14:11Z</time>
      </trkpt>
      <trkpt lat="44.22974" lon="0.73284">
        <ele>187.59436</ele>
        <time>2011-05-08T08:14:19Z</time>
      </trkpt>
      <trkpt lat="44.22964" lon="0.73302">
        <ele>189.036377</ele>
        <time>2011-05-08T08:14:33Z</time>
      </trkpt>
      <trkpt lat="44.22961" lon="0.73311">
        <ele>188.555786</ele>
        <time>2011-05-08T08:14:38Z</time>
      </trkpt>
      <trkpt lat="44.22952" lon="0.73333">
        <ele>188.075073</ele>
        <time>2011-05-08T08:14:52Z</time>
      </trkpt>
      <trkpt lat="44.22952" lon="0.73335">
        <ele>188.075073</ele>
        <time>2011-05-08T08:14:53Z</time>
      </trkpt>
      <trkpt lat="44.22945" lon="0.73378">
        <ele>189.036377</ele>
        <time>2011-05-08T08:15:08Z</time>
      </trkpt>
      <trkpt lat="44.2294" lon="0.73429">
        <ele>187.11377</ele>
        <time>2011-05-08T08:15:22Z</time>
      </trkpt>
      <trkpt lat="44.22938" lon="0.73491">
        <ele>184.229858</ele>
        <time>2011-05-08T08:15:34Z</time>
      </trkpt>
      <trkpt lat="44.2294" lon="0.73516">
        <ele>184.229858</ele>
        <time>2011-05-08T08:15:38Z</time>
      </trkpt>
      <trkpt lat="44.22945" lon="0.73571">
        <ele>185.671753</ele>
        <time>2011-05-08T08:15:48Z</time>
      </trkpt>
      <trkpt lat="44.22959" lon="0.73646">
        <ele>186.152466</ele>
        <time>2011-05-08T08:16:01Z</time>
      </trkpt>
      <trkpt lat="44.22991" lon="0.73712">
        <ele>184.710571</ele>
        <time>2011-05-08T08:16:15Z</time>
      </trkpt>
      <trkpt lat="44.23019" lon="0.7378">
        <ele>185.191162</ele>
        <time>2011-05-08T08:16:29Z</time>
      </trkpt>
      <trkpt lat="44.23041" lon="0.7385">
        <ele>187.59436</ele>
        <time>2011-05-08T08:16:45Z</time>
      </trkpt>
      <trkpt lat="44.23038" lon="0.73916">
        <ele>187.11377</ele>
        <time>2011-05-08T08:16:59Z</time>
      </trkpt>
      <trkpt lat="44.23018" lon="0.73974">
        <ele>185.671753</ele>
        <time>2011-05-08T08:17:09Z</time>
      </trkpt>
      <trkpt lat="44.23007" lon="0.74002">
        <ele>184.229858</ele>
        <time>2011-05-08T08:17:14Z</time>
      </trkpt>
      <trkpt lat="44.2299" lon="0.74031">
        <ele>185.191162</ele>
        <time>2011-05-08T08:17:20Z</time>
      </trkpt>
      <trkpt lat="44.22984" lon="0.74041">
        <ele>185.671753</ele>
        <time>2011-05-08T08:17:22Z</time>
      </trkpt>
      <trkpt lat="44.2295" lon="0.7409">
        <ele>185.191162</ele>
        <time>2011-05-08T08:17:31Z</time>
      </trkpt>
      <trkpt lat="44.22943" lon="0.74102">
        <ele>184.710571</ele>
        <time>2011-05-08T08:17:33Z</time>
      </trkpt>
      <trkpt lat="44.22926" lon="0.7412">
        <ele>182.787842</ele>
        <time>2011-05-08T08:17:37Z</time>
      </trkpt>
      <trkpt lat="44.22884" lon="0.74135">
        <ele>178.461914</ele>
        <time>2011-05-08T08:17:43Z</time>
      </trkpt>
      <trkpt lat="44.22857" lon="0.74161">
        <ele>174.616577</ele>
        <time>2011-05-08T08:17:48Z</time>
      </trkpt>
      <trkpt lat="44.22848" lon="0.74176">
        <ele>172.69397</ele>
        <time>2011-05-08T08:17:50Z</time>
      </trkpt>
      <trkpt lat="44.22838" lon="0.74199">
        <ele>167.887329</ele>
        <time>2011-05-08T08:17:55Z</time>
      </trkpt>
      <trkpt lat="44.22825" lon="0.74249">
        <ele>163.080811</ele>
        <time>2011-05-08T08:18:06Z</time>
      </trkpt>
      <trkpt lat="44.22808" lon="0.74287">
        <ele>165.003418</ele>
        <time>2011-05-08T08:18:17Z</time>
      </trkpt>
      <trkpt lat="44.22782" lon="0.74339">
        <ele>164.042114</ele>
        <time>2011-05-08T08:18:30Z</time>
      </trkpt>
      <trkpt lat="44.22748" lon="0.74369">
        <ele>164.042114</ele>
        <time>2011-05-08T08:18:42Z</time>
      </trkpt>
      <trkpt lat="44.22718" lon="0.74402">
        <ele>165.964722</ele>
        <time>2011-05-08T08:18:55Z</time>
      </trkpt>
      <trkpt lat="44.227" lon="0.74451">
        <ele>169.329468</ele>
        <time>2011-05-08T08:19:09Z</time>
      </trkpt>
      <trkpt lat="44.22685" lon="0.74489">
        <ele>169.810059</ele>
        <time>2011-05-08T08:19:21Z</time>
      </trkpt>
      <trkpt lat="44.22659" lon="0.74506">
        <ele>172.69397</ele>
        <time>2011-05-08T08:19:34Z</time>
      </trkpt>
      <trkpt lat="44.2263" lon="0.74514">
        <ele>178.461914</ele>
        <time>2011-05-08T08:19:49Z</time>
      </trkpt>
      <trkpt lat="44.22629" lon="0.74515">
        <ele>178.942627</ele>
        <time>2011-05-08T08:19:50Z</time>
      </trkpt>
      <trkpt lat="44.22622" lon="0.74517">
        <ele>180.865234</ele>
        <time>2011-05-08T08:19:54Z</time>
      </trkpt>
      <trkpt lat="44.22599" lon="0.74523">
        <ele>181.345825</ele>
        <time>2011-05-08T08:20:07Z</time>
      </trkpt>
      <trkpt lat="44.22577" lon="0.74509">
        <ele>180.384521</ele>
        <time>2011-05-08T08:20:20Z</time>
      </trkpt>
      <trkpt lat="44.2256" lon="0.74501">
        <ele>181.826416</ele>
        <time>2011-05-08T08:20:30Z</time>
      </trkpt>
      <trkpt lat="44.22533" lon="0.74492">
        <ele>182.307129</ele>
        <time>2011-05-08T08:20:43Z</time>
      </trkpt>
      <trkpt lat="44.22507" lon="0.74484">
        <ele>183.268433</ele>
        <time>2011-05-08T08:20:55Z</time>
      </trkpt>
      <trkpt lat="44.22474" lon="0.74483">
        <ele>185.191162</ele>
        <time>2011-05-08T08:21:09Z</time>
      </trkpt>
      <trkpt lat="44.22437" lon="0.74511">
        <ele>186.152466</ele>
        <time>2011-05-08T08:21:23Z</time>
      </trkpt>
      <trkpt lat="44.22422" lon="0.74526">
        <ele>185.671753</ele>
        <time>2011-05-08T08:21:28Z</time>
      </trkpt>
      <trkpt lat="44.22382" lon="0.74576">
        <ele>180.865234</ele>
        <time>2011-05-08T08:21:38Z</time>
      </trkpt>
      <trkpt lat="44.22373" lon="0.74588">
        <ele>180.384521</ele>
        <time>2011-05-08T08:21:40Z</time>
      </trkpt>
      <trkpt lat="44.22327" lon="0.74628">
        <ele>177.981201</ele>
        <time>2011-05-08T08:21:48Z</time>
      </trkpt>
      <trkpt lat="44.22269" lon="0.74664">
        <ele>175.09729</ele>
        <time>2011-05-08T08:21:56Z</time>
      </trkpt>
      <trkpt lat="44.22237" lon="0.7467">
        <ele>171.732666</ele>
        <time>2011-05-08T08:22:00Z</time>
      </trkpt>
      <trkpt lat="44.22195" lon="0.74654">
        <ele>169.810059</ele>
        <time>2011-05-08T08:22:06Z</time>
      </trkpt>
      <trkpt lat="44.22101" lon="0.74625">
        <ele>166.445313</ele>
        <time>2011-05-08T08:22:20Z</time>
      </trkpt>
      <trkpt lat="44.22017" lon="0.74595">
        <ele>163.080811</ele>
        <time>2011-05-08T08:22:32Z</time>
      </trkpt>
      <trkpt lat="44.21974" lon="0.74558">
        <ele>164.522705</ele>
        <time>2011-05-08T08:22:40Z</time>
      </trkpt>
      <trkpt lat="44.21936" lon="0.74525">
        <ele>168.368042</ele>
        <time>2011-05-08T08:22:52Z</time>
      </trkpt>
      <trkpt lat="44.21899" lon="0.7449">
        <ele>168.848755</ele>
        <time>2011-05-08T08:23:05Z</time>
      </trkpt>
      <trkpt lat="44.21849" lon="0.7444">
        <ele>169.329468</ele>
        <time>2011-05-08T08:23:22Z</time>
      </trkpt>
      <trkpt lat="44.21831" lon="0.74414">
        <ele>170.771362</ele>
        <time>2011-05-08T08:23:34Z</time>
      </trkpt>
      <trkpt lat="44.21805" lon="0.74373">
        <ele>166.445313</ele>
        <time>2011-05-08T08:23:46Z</time>
      </trkpt>
      <trkpt lat="44.21779" lon="0.74339">
        <ele>161.638916</ele>
        <time>2011-05-08T08:23:59Z</time>
      </trkpt>
      <trkpt lat="44.21775" lon="0.74333">
        <ele>160.67749</ele>
        <time>2011-05-08T08:24:10Z</time>
      </trkpt>
      <trkpt lat="44.21744" lon="0.74304">
        <ele>156.351563</ele>
        <time>2011-05-08T08:24:21Z</time>
      </trkpt>
      <trkpt lat="44.2174" lon="0.74303">
        <ele>155.870972</ele>
        <time>2011-05-08T08:24:22Z</time>
      </trkpt>
      <trkpt lat="44.21723" lon="0.74302">
        <ele>153.948364</ele>
        <time>2011-05-08T08:24:26Z</time>
      </trkpt>
      <trkpt lat="44.21674" lon="0.74299">
        <ele>150.103027</ele>
        <time>2011-05-08T08:24:36Z</time>
      </trkpt>
      <trkpt lat="44.21642" lon="0.74287">
        <ele>148.18042</ele>
        <time>2011-05-08T08:24:43Z</time>
      </trkpt>
      <trkpt lat="44.21617" lon="0.74278">
        <ele>147.218994</ele>
        <time>2011-05-08T08:24:49Z</time>
      </trkpt>
      <trkpt lat="44.21557" lon="0.74296">
        <ele>137.605835</ele>
        <time>2011-05-08T08:24:58Z</time>
      </trkpt>
      <trkpt lat="44.21511" lon="0.74302">
        <ele>127.992554</ele>
        <time>2011-05-08T08:25:04Z</time>
      </trkpt>
      <trkpt lat="44.2143" lon="0.74274">
        <ele>115.976196</ele>
        <time>2011-05-08T08:25:13Z</time>
      </trkpt>
      <trkpt lat="44.21371" lon="0.74253">
        <ele>107.805054</ele>
        <time>2011-05-08T08:25:21Z</time>
      </trkpt>
      <trkpt lat="44.21352" lon="0.74253">
        <ele>105.401733</ele>
        <time>2011-05-08T08:25:24Z</time>
      </trkpt>
      <trkpt lat="44.21319" lon="0.74247">
        <ele>101.556396</ele>
        <time>2011-05-08T08:25:32Z</time>
      </trkpt>
      <trkpt lat="44.21313" lon="0.74245">
        <ele>101.075684</ele>
        <time>2011-05-08T08:25:34Z</time>
      </trkpt>
      <trkpt lat="44.21274" lon="0.74245">
        <ele>97.711182</ele>
        <time>2011-05-08T08:25:43Z</time>
      </trkpt>
      <trkpt lat="44.21256" lon="0.74251">
        <ele>96.749878</ele>
        <time>2011-05-08T08:25:49Z</time>
      </trkpt>
      <trkpt lat="44.21245" lon="0.74242">
        <ele>95.307739</ele>
        <time>2011-05-08T08:25:53Z</time>
      </trkpt>
      <trkpt lat="44.21234" lon="0.74227">
        <ele>94.346558</ele>
        <time>2011-05-08T08:25:57Z</time>
      </trkpt>
      <trkpt lat="44.21222" lon="0.74208">
        <ele>93.865845</ele>
        <time>2011-05-08T08:26:01Z</time>
      </trkpt>
      <trkpt lat="44.21186" lon="0.74138">
        <ele>92.42395</ele>
        <time>2011-05-08T08:26:16Z</time>
      </trkpt>
      <trkpt lat="44.21178" lon="0.74088">
        <ele>93.865845</ele>
        <time>2011-05-08T08:26:28Z</time>
      </trkpt>
      <trkpt lat="44.21176" lon="0.74049">
        <ele>97.711182</ele>
        <time>2011-05-08T08:26:40Z</time>
      </trkpt>
      <trkpt lat="44.21169" lon="0.74003">
        <ele>102.037109</ele>
        <time>2011-05-08T08:26:54Z</time>
      </trkpt>
      <trkpt lat="44.21149" lon="0.73958">
        <ele>100.595093</ele>
        <time>2011-05-08T08:27:08Z</time>
      </trkpt>
      <trkpt lat="44.21103" lon="0.73886">
        <ele>99.153076</ele>
        <time>2011-05-08T08:27:23Z</time>
      </trkpt>
      <trkpt lat="44.21067" lon="0.73833">
        <ele>100.595093</ele>
        <time>2011-05-08T08:27:33Z</time>
      </trkpt>
      <trkpt lat="44.21047" lon="0.738">
        <ele>103.959717</ele>
        <time>2011-05-08T08:27:39Z</time>
      </trkpt>
      <trkpt lat="44.21036" lon="0.73784">
        <ele>105.401733</ele>
        <time>2011-05-08T08:27:43Z</time>
      </trkpt>
      <trkpt lat="44.21014" lon="0.73734">
        <ele>104.921021</ele>
        <time>2011-05-08T08:27:53Z</time>
      </trkpt>
      <trkpt lat="44.2101" lon="0.73724">
        <ele>104.921021</ele>
        <time>2011-05-08T08:27:55Z</time>
      </trkpt>
      <trkpt lat="44.21001" lon="0.73711">
        <ele>103.959717</ele>
        <time>2011-05-08T08:27:58Z</time>
      </trkpt>
      <trkpt lat="44.20947" lon="0.73663">
        <ele>96.269287</ele>
        <time>2011-05-08T08:28:08Z</time>
      </trkpt>
      <trkpt lat="44.20857" lon="0.73613">
        <ele>91.462524</ele>
        <time>2011-05-08T08:28:19Z</time>
      </trkpt>
      <trkpt lat="44.20814" lon="0.73574">
        <ele>94.827148</ele>
        <time>2011-05-08T08:28:29Z</time>
      </trkpt>
      <trkpt lat="44.20786" lon="0.7354">
        <ele>96.269287</ele>
        <time>2011-05-08T08:28:41Z</time>
      </trkpt>
      <trkpt lat="44.2078" lon="0.73517">
        <ele>97.711182</ele>
        <time>2011-05-08T08:28:52Z</time>
      </trkpt>
      <trkpt lat="44.20787" lon="0.73504">
        <ele>101.075684</ele>
        <time>2011-05-08T08:29:02Z</time>
      </trkpt>
      <trkpt lat="44.20792" lon="0.73501">
        <ele>102.998291</ele>
        <time>2011-05-08T08:29:07Z</time>
      </trkpt>
      <trkpt lat="44.20803" lon="0.73497">
        <ele>105.882446</ele>
        <time>2011-05-08T08:29:18Z</time>
      </trkpt>
      <trkpt lat="44.20814" lon="0.73493">
        <ele>108.285645</ele>
        <time>2011-05-08T08:29:28Z</time>
      </trkpt>
      <trkpt lat="44.20815" lon="0.73493">
        <ele>108.285645</ele>
        <time>2011-05-08T08:29:29Z</time>
      </trkpt>
      <trkpt lat="44.20823" lon="0.73488">
        <ele>108.766235</ele>
        <time>2011-05-08T08:29:36Z</time>
      </trkpt>
      <trkpt lat="44.20826" lon="0.73481">
        <ele>110.208252</ele>
        <time>2011-05-08T08:29:41Z</time>
      </trkpt>
      <trkpt lat="44.20827" lon="0.73478">
        <ele>110.688843</ele>
        <time>2011-05-08T08:29:43Z</time>
      </trkpt>
      <trkpt lat="44.20836" lon="0.73464">
        <ele>113.572998</ele>
        <time>2011-05-08T08:29:54Z</time>
      </trkpt>
      <trkpt lat="44.20837" lon="0.73459">
        <ele>114.053589</ele>
        <time>2011-05-08T08:29:57Z</time>
      </trkpt>
      <trkpt lat="44.20839" lon="0.73453">
        <ele>115.014893</ele>
        <time>2011-05-08T08:30:01Z</time>
      </trkpt>
      <trkpt lat="44.20845" lon="0.73431">
        <ele>117.418213</ele>
        <time>2011-05-08T08:30:17Z</time>
      </trkpt>
      <trkpt lat="44.20849" lon="0.7342">
        <ele>118.379395</ele>
        <time>2011-05-08T08:30:25Z</time>
      </trkpt>
      <trkpt lat="44.20851" lon="0.73414">
        <ele>118.379395</ele>
        <time>2011-05-08T08:30:29Z</time>
      </trkpt>
      <trkpt lat="44.20854" lon="0.73405">
        <ele>119.821411</ele>
        <time>2011-05-08T08:30:35Z</time>
      </trkpt>
      <trkpt lat="44.20857" lon="0.73399">
        <ele>120.302124</ele>
        <time>2011-05-08T08:30:39Z</time>
      </trkpt>
      <trkpt lat="44.20858" lon="0.73391">
        <ele>121.26355</ele>
        <time>2011-05-08T08:30:44Z</time>
      </trkpt>
      <trkpt lat="44.20861" lon="0.73369">
        <ele>123.666748</ele>
        <time>2011-05-08T08:30:58Z</time>
      </trkpt>
      <trkpt lat="44.20865" lon="0.73342">
        <ele>125.589355</ele>
        <time>2011-05-08T08:31:15Z</time>
      </trkpt>
      <trkpt lat="44.20868" lon="0.73315">
        <ele>127.511963</ele>
        <time>2011-05-08T08:31:31Z</time>
      </trkpt>
      <trkpt lat="44.20869" lon="0.73305">
        <ele>127.992554</ele>
        <time>2011-05-08T08:31:37Z</time>
      </trkpt>
      <trkpt lat="44.20871" lon="0.73284">
        <ele>128.954102</ele>
        <time>2011-05-08T08:31:51Z</time>
      </trkpt>
      <trkpt lat="44.20872" lon="0.73261">
        <ele>128.954102</ele>
        <time>2011-05-08T08:32:05Z</time>
      </trkpt>
      <trkpt lat="44.20872" lon="0.73251">
        <ele>129.434692</ele>
        <time>2011-05-08T08:32:11Z</time>
      </trkpt>
      <trkpt lat="44.20872" lon="0.7323">
        <ele>130.395996</ele>
        <time>2011-05-08T08:32:24Z</time>
      </trkpt>
      <trkpt lat="44.20874" lon="0.73206">
        <ele>130.876709</ele>
        <time>2011-05-08T08:32:38Z</time>
      </trkpt>
      <trkpt lat="44.20874" lon="0.73195">
        <ele>132.318604</ele>
        <time>2011-05-08T08:32:45Z</time>
      </trkpt>
      <trkpt lat="44.20874" lon="0.73175">
        <ele>135.202515</ele>
        <time>2011-05-08T08:32:58Z</time>
      </trkpt>
      <trkpt lat="44.20874" lon="0.73148">
        <ele>136.644653</ele>
        <time>2011-05-08T08:33:14Z</time>
      </trkpt>
      <trkpt lat="44.20874" lon="0.73147">
        <ele>136.644653</ele>
        <time>2011-05-08T08:33:15Z</time>
      </trkpt>
      <trkpt lat="44.20872" lon="0.73132">
        <ele>137.125244</ele>
        <time>2011-05-08T08:33:24Z</time>
      </trkpt>
      <trkpt lat="44.20871" lon="0.73127">
        <ele>137.125244</ele>
        <time>2011-05-08T08:33:27Z</time>
      </trkpt>
      <trkpt lat="44.2087" lon="0.73118">
        <ele>138.086548</ele>
        <time>2011-05-08T08:33:32Z</time>
      </trkpt>
      <trkpt lat="44.20869" lon="0.73115">
        <ele>138.567261</ele>
        <time>2011-05-08T08:33:34Z</time>
      </trkpt>
      <trkpt lat="44.20867" lon="0.73104">
        <ele>140.009155</ele>
        <time>2011-05-08T08:33:42Z</time>
      </trkpt>
      <trkpt lat="44.20866" lon="0.73086">
        <ele>142.412476</ele>
        <time>2011-05-08T08:33:55Z</time>
      </trkpt>
      <trkpt lat="44.20864" lon="0.73076">
        <ele>141.931763</ele>
        <time>2011-05-08T08:34:04Z</time>
      </trkpt>
      <trkpt lat="44.20861" lon="0.73065">
        <ele>142.412476</ele>
        <time>2011-05-08T08:34:10Z</time>
      </trkpt>
      <trkpt lat="44.20853" lon="0.73053">
        <ele>142.893066</ele>
        <time>2011-05-08T08:34:17Z</time>
      </trkpt>
      <trkpt lat="44.20827" lon="0.7303">
        <ele>146.257813</ele>
        <time>2011-05-08T08:34:31Z</time>
      </trkpt>
      <trkpt lat="44.20814" lon="0.73022">
        <ele>147.218994</ele>
        <time>2011-05-08T08:34:39Z</time>
      </trkpt>
      <trkpt lat="44.20807" lon="0.73021">
        <ele>146.738403</ele>
        <time>2011-05-08T08:34:43Z</time>
      </trkpt>
      <trkpt lat="44.20797" lon="0.73016">
        <ele>147.218994</ele>
        <time>2011-05-08T08:34:49Z</time>
      </trkpt>
      <trkpt lat="44.20784" lon="0.73">
        <ele>149.622314</ele>
        <time>2011-05-08T08:35:00Z</time>
      </trkpt>
      <trkpt lat="44.20775" lon="0.72989">
        <ele>151.064209</ele>
        <time>2011-05-08T08:35:08Z</time>
      </trkpt>
      <trkpt lat="44.20771" lon="0.72985">
        <ele>151.544922</ele>
        <time>2011-05-08T08:35:11Z</time>
      </trkpt>
      <trkpt lat="44.20765" lon="0.72978">
        <ele>152.506348</ele>
        <time>2011-05-08T08:35:16Z</time>
      </trkpt>
      <trkpt lat="44.20759" lon="0.72968">
        <ele>153.948364</ele>
        <time>2011-05-08T08:35:22Z</time>
      </trkpt>
      <trkpt lat="44.20752" lon="0.72943">
        <ele>156.832153</ele>
        <time>2011-05-08T08:35:34Z</time>
      </trkpt>
      <trkpt lat="44.20755" lon="0.72925">
        <ele>158.754761</ele>
        <time>2011-05-08T08:35:44Z</time>
      </trkpt>
      <trkpt lat="44.20766" lon="0.7289">
        <ele>159.716187</ele>
        <time>2011-05-08T08:35:58Z</time>
      </trkpt>
      <trkpt lat="44.20785" lon="0.72857">
        <ele>161.638916</ele>
        <time>2011-05-08T08:36:12Z</time>
      </trkpt>
      <trkpt lat="44.20808" lon="0.72822">
        <ele>161.638916</ele>
        <time>2011-05-08T08:36:26Z</time>
      </trkpt>
      <trkpt lat="44.20834" lon="0.72784">
        <ele>160.196899</ele>
        <time>2011-05-08T08:36:42Z</time>
      </trkpt>
      <trkpt lat="44.20853" lon="0.72748">
        <ele>161.158203</ele>
        <time>2011-05-08T08:36:56Z</time>
      </trkpt>
      <trkpt lat="44.20863" lon="0.7269">
        <ele>154.909546</ele>
        <time>2011-05-08T08:37:10Z</time>
      </trkpt>
      <trkpt lat="44.2088" lon="0.72614">
        <ele>148.18042</ele>
        <time>2011-05-08T08:37:25Z</time>
      </trkpt>
      <trkpt lat="44.20884" lon="0.72598">
        <ele>146.738403</ele>
        <time>2011-05-08T08:37:28Z</time>
      </trkpt>
      <trkpt lat="44.209" lon="0.72601">
        <ele>149.141602</ele>
        <time>2011-05-08T08:37:38Z</time>
      </trkpt>
      <trkpt lat="44.20924" lon="0.72617">
        <ele>152.025757</ele>
        <time>2011-05-08T08:37:52Z</time>
      </trkpt>
      <trkpt lat="44.20954" lon="0.72638">
        <ele>154.428955</ele>
        <time>2011-05-08T08:38:07Z</time>
      </trkpt>
      <trkpt lat="44.20983" lon="0.72661">
        <ele>156.351563</ele>
        <time>2011-05-08T08:38:23Z</time>
      </trkpt>
      <trkpt lat="44.21006" lon="0.7268">
        <ele>158.27417</ele>
        <time>2011-05-08T08:38:37Z</time>
      </trkpt>
      <trkpt lat="44.21027" lon="0.72696">
        <ele>159.716187</ele>
        <time>2011-05-08T08:38:49Z</time>
      </trkpt>
      <trkpt lat="44.21034" lon="0.72692">
        <ele>159.235474</ele>
        <time>2011-05-08T08:38:53Z</time>
      </trkpt>
      <trkpt lat="44.21062" lon="0.72649">
        <ele>157.793579</ele>
        <time>2011-05-08T08:39:08Z</time>
      </trkpt>
      <trkpt lat="44.21096" lon="0.72598">
        <ele>156.832153</ele>
        <time>2011-05-08T08:39:21Z</time>
      </trkpt>
      <trkpt lat="44.21103" lon="0.72591">
        <ele>156.351563</ele>
        <time>2011-05-08T08:39:23Z</time>
      </trkpt>
      <trkpt lat="44.21127" lon="0.72578">
        <ele>155.870972</ele>
        <time>2011-05-08T08:39:28Z</time>
      </trkpt>
      <trkpt lat="44.2115" lon="0.72574">
        <ele>155.390259</ele>
        <time>2011-05-08T08:39:32Z</time>
      </trkpt>
      <trkpt lat="44.21231" lon="0.72582">
        <ele>156.832153</ele>
        <time>2011-05-08T08:39:47Z</time>
      </trkpt>
      <trkpt lat="44.21245" lon="0.7258">
        <ele>157.312866</ele>
        <time>2011-05-08T08:39:50Z</time>
      </trkpt>
      <trkpt lat="44.21263" lon="0.72579">
        <ele>157.793579</ele>
        <time>2011-05-08T08:39:54Z</time>
      </trkpt>
      <trkpt lat="44.21285" lon="0.72603">
        <ele>157.793579</ele>
        <time>2011-05-08T08:40:00Z</time>
      </trkpt>
      <trkpt lat="44.21328" lon="0.72647">
        <ele>158.27417</ele>
        <time>2011-05-08T08:40:11Z</time>
      </trkpt>
      <trkpt lat="44.21346" lon="0.7266">
        <ele>158.754761</ele>
        <time>2011-05-08T08:40:16Z</time>
      </trkpt>
      <trkpt lat="44.21372" lon="0.72663">
        <ele>156.832153</ele>
        <time>2011-05-08T08:40:22Z</time>
      </trkpt>
      <trkpt lat="44.21383" lon="0.72665">
        <ele>156.351563</ele>
        <time>2011-05-08T08:40:24Z</time>
      </trkpt>
      <trkpt lat="44.21486" lon="0.7265">
        <ele>151.064209</ele>
        <time>2011-05-08T08:40:39Z</time>
      </trkpt>
      <trkpt lat="44.21492" lon="0.72648">
        <ele>150.583618</ele>
        <time>2011-05-08T08:40:40Z</time>
      </trkpt>
      <trkpt lat="44.21512" lon="0.72641">
        <ele>150.583618</ele>
        <time>2011-05-08T08:40:43Z</time>
      </trkpt>
      <trkpt lat="44.21587" lon="0.72664">
        <ele>152.025757</ele>
        <time>2011-05-08T08:40:55Z</time>
      </trkpt>
      <trkpt lat="44.2166" lon="0.72687">
        <ele>154.909546</ele>
        <time>2011-05-08T08:41:09Z</time>
      </trkpt>
      <trkpt lat="44.21669" lon="0.7269">
        <ele>154.909546</ele>
        <time>2011-05-08T08:41:11Z</time>
      </trkpt>
      <trkpt lat="44.2172" lon="0.72729">
        <ele>156.351563</ele>
        <time>2011-05-08T08:41:26Z</time>
      </trkpt>
      <trkpt lat="44.21775" lon="0.7276">
        <ele>156.832153</ele>
        <time>2011-05-08T08:41:39Z</time>
      </trkpt>
      <trkpt lat="44.21795" lon="0.72765">
        <ele>158.754761</ele>
        <time>2011-05-08T08:41:50Z</time>
      </trkpt>
      <trkpt lat="44.21801" lon="0.72767">
        <ele>158.27417</ele>
        <time>2011-05-08T08:41:54Z</time>
      </trkpt>
      <trkpt lat="44.2181" lon="0.72767">
        <ele>158.754761</ele>
        <time>2011-05-08T08:42:00Z</time>
      </trkpt>
      <trkpt lat="44.21823" lon="0.72765">
        <ele>161.638916</ele>
        <time>2011-05-08T08:42:09Z</time>
      </trkpt>
      <trkpt lat="44.21826" lon="0.72766">
        <ele>162.119507</ele>
        <time>2011-05-08T08:42:11Z</time>
      </trkpt>
      <trkpt lat="44.2184" lon="0.72767">
        <ele>165.964722</ele>
        <time>2011-05-08T08:42:21Z</time>
      </trkpt>
      <trkpt lat="44.21843" lon="0.72767">
        <ele>165.964722</ele>
        <time>2011-05-08T08:42:22Z</time>
      </trkpt>
      <trkpt lat="44.21846" lon="0.72768">
        <ele>166.445313</ele>
        <time>2011-05-08T08:42:24Z</time>
      </trkpt>
      <trkpt lat="44.21866" lon="0.72774">
        <ele>166.445313</ele>
        <time>2011-05-08T08:42:34Z</time>
      </trkpt>
      <trkpt lat="44.2188" lon="0.72772">
        <ele>167.887329</ele>
        <time>2011-05-08T08:42:41Z</time>
      </trkpt>
      <trkpt lat="44.21885" lon="0.72772">
        <ele>168.368042</ele>
        <time>2011-05-08T08:42:43Z</time>
      </trkpt>
      <trkpt lat="44.21908" lon="0.72771">
        <ele>172.69397</ele>
        <time>2011-05-08T08:42:53Z</time>
      </trkpt>
      <trkpt lat="44.21909" lon="0.72771">
        <ele>173.174683</ele>
        <time>2011-05-08T08:42:54Z</time>
      </trkpt>
      <trkpt lat="44.21922" lon="0.72767">
        <ele>175.577881</ele>
        <time>2011-05-08T08:43:02Z</time>
      </trkpt>
      <trkpt lat="44.21947" lon="0.72766">
        <ele>177.02002</ele>
        <time>2011-05-08T08:43:10Z</time>
      </trkpt>
      <trkpt lat="44.2197" lon="0.72767">
        <ele>174.616577</ele>
        <time>2011-05-08T08:43:20Z</time>
      </trkpt>
      <trkpt lat="44.21972" lon="0.72766">
        <ele>174.135864</ele>
        <time>2011-05-08T08:43:21Z</time>
      </trkpt>
      <trkpt lat="44.21986" lon="0.72766">
        <ele>171.732666</ele>
        <time>2011-05-08T08:43:26Z</time>
      </trkpt>
      <trkpt lat="44.22007" lon="0.72766">
        <ele>167.406738</ele>
        <time>2011-05-08T08:43:34Z</time>
      </trkpt>
      <trkpt lat="44.2201" lon="0.72765">
        <ele>166.926025</ele>
        <time>2011-05-08T08:43:35Z</time>
      </trkpt>
      <trkpt lat="44.22038" lon="0.72761">
        <ele>165.003418</ele>
        <time>2011-05-08T08:43:44Z</time>
      </trkpt>
      <trkpt lat="44.22044" lon="0.72748">
        <ele>164.042114</ele>
        <time>2011-05-08T08:43:48Z</time>
      </trkpt>
      <trkpt lat="44.22054" lon="0.72737">
        <ele>163.080811</ele>
        <time>2011-05-08T08:43:53Z</time>
      </trkpt>
      <trkpt lat="44.22057" lon="0.72717">
        <ele>161.158203</ele>
        <time>2011-05-08T08:44:01Z</time>
      </trkpt>
      <trkpt lat="44.2206" lon="0.7271">
        <ele>161.638916</ele>
        <time>2011-05-08T08:44:04Z</time>
      </trkpt>
      <trkpt lat="44.22074" lon="0.72688">
        <ele>165.484131</ele>
        <time>2011-05-08T08:44:12Z</time>
      </trkpt>
      <trkpt lat="44.22082" lon="0.72651">
        <ele>168.368042</ele>
        <time>2011-05-08T08:44:23Z</time>
      </trkpt>
      <trkpt lat="44.22084" lon="0.72642">
        <ele>168.848755</ele>
        <time>2011-05-08T08:44:25Z</time>
      </trkpt>
      <trkpt lat="44.22093" lon="0.72601">
        <ele>171.252075</ele>
        <time>2011-05-08T08:44:33Z</time>
      </trkpt>
      <trkpt lat="44.221" lon="0.72582">
        <ele>171.732666</ele>
        <time>2011-05-08T08:44:36Z</time>
      </trkpt>
      <trkpt lat="44.22119" lon="0.72525">
        <ele>171.252075</ele>
        <time>2011-05-08T08:44:45Z</time>
      </trkpt>
      <trkpt lat="44.22143" lon="0.72475">
        <ele>171.252075</ele>
        <time>2011-05-08T08:44:52Z</time>
      </trkpt>
      <trkpt lat="44.22151" lon="0.72454">
        <ele>170.771362</ele>
        <time>2011-05-08T08:44:55Z</time>
      </trkpt>
      <trkpt lat="44.2216" lon="0.72421">
        <ele>169.329468</ele>
        <time>2011-05-08T08:45:00Z</time>
      </trkpt>
      <trkpt lat="44.22167" lon="0.72358">
        <ele>168.848755</ele>
        <time>2011-05-08T08:45:13Z</time>
      </trkpt>
      <trkpt lat="44.22171" lon="0.72321">
        <ele>168.368042</ele>
        <time>2011-05-08T08:45:22Z</time>
      </trkpt>
      <trkpt lat="44.22145" lon="0.72306">
        <ele>167.406738</ele>
        <time>2011-05-08T08:45:29Z</time>
      </trkpt>
      <trkpt lat="44.22118" lon="0.723">
        <ele>166.926025</ele>
        <time>2011-05-08T08:45:34Z</time>
      </trkpt>
      <trkpt lat="44.22045" lon="0.72286">
        <ele>165.484131</ele>
        <time>2011-05-08T08:45:48Z</time>
      </trkpt>
      <trkpt lat="44.21976" lon="0.72277">
        <ele>163.080811</ele>
        <time>2011-05-08T08:46:01Z</time>
      </trkpt>
      <trkpt lat="44.21971" lon="0.72275">
        <ele>163.080811</ele>
        <time>2011-05-08T08:46:02Z</time>
      </trkpt>
      <trkpt lat="44.21953" lon="0.72275">
        <ele>162.119507</ele>
        <time>2011-05-08T08:46:05Z</time>
      </trkpt>
      <trkpt lat="44.21944" lon="0.72275">
        <ele>161.638916</ele>
        <time>2011-05-08T08:46:07Z</time>
      </trkpt>
      <trkpt lat="44.21909" lon="0.72263">
        <ele>157.793579</ele>
        <time>2011-05-08T08:46:13Z</time>
      </trkpt>
      <trkpt lat="44.21889" lon="0.72262">
        <ele>155.870972</ele>
        <time>2011-05-08T08:46:16Z</time>
      </trkpt>
      <trkpt lat="44.21869" lon="0.72257">
        <ele>153.467651</ele>
        <time>2011-05-08T08:46:21Z</time>
      </trkpt>
      <trkpt lat="44.21861" lon="0.72262">
        <ele>153.948364</ele>
        <time>2011-05-08T08:46:23Z</time>
      </trkpt>
      <trkpt lat="44.21849" lon="0.72277">
        <ele>153.948364</ele>
        <time>2011-05-08T08:46:26Z</time>
      </trkpt>
      <trkpt lat="44.21789" lon="0.72345">
        <ele>150.583618</ele>
        <time>2011-05-08T08:46:36Z</time>
      </trkpt>
      <trkpt lat="44.21783" lon="0.72354">
        <ele>150.103027</ele>
        <time>2011-05-08T08:46:37Z</time>
      </trkpt>
      <trkpt lat="44.21748" lon="0.7237">
        <ele>148.661011</ele>
        <time>2011-05-08T08:46:42Z</time>
      </trkpt>
      <trkpt lat="44.21715" lon="0.72364">
        <ele>147.699707</ele>
        <time>2011-05-08T08:46:48Z</time>
      </trkpt>
      <trkpt lat="44.21694" lon="0.72361">
        <ele>146.257813</ele>
        <time>2011-05-08T08:46:52Z</time>
      </trkpt>
      <trkpt lat="44.21678" lon="0.72362">
        <ele>145.296387</ele>
        <time>2011-05-08T08:46:55Z</time>
      </trkpt>
      <trkpt lat="44.21646" lon="0.72375">
        <ele>143.373657</ele>
        <time>2011-05-08T08:47:00Z</time>
      </trkpt>
      <trkpt lat="44.21614" lon="0.72371">
        <ele>141.931763</ele>
        <time>2011-05-08T08:47:05Z</time>
      </trkpt>
      <trkpt lat="44.21571" lon="0.72351">
        <ele>141.45105</ele>
        <time>2011-05-08T08:47:17Z</time>
      </trkpt>
      <trkpt lat="44.21542" lon="0.72336">
        <ele>142.893066</ele>
        <time>2011-05-08T08:47:32Z</time>
      </trkpt>
      <trkpt lat="44.2153" lon="0.72332">
        <ele>144.335205</ele>
        <time>2011-05-08T08:47:40Z</time>
      </trkpt>
      <trkpt lat="44.21516" lon="0.7233">
        <ele>146.738403</ele>
        <time>2011-05-08T08:47:49Z</time>
      </trkpt>
      <trkpt lat="44.21496" lon="0.72325">
        <ele>146.257813</ele>
        <time>2011-05-08T08:47:56Z</time>
      </trkpt>
      <trkpt lat="44.21439" lon="0.72321">
        <ele>144.815796</ele>
        <time>2011-05-08T08:48:08Z</time>
      </trkpt>
      <trkpt lat="44.21412" lon="0.72323">
        <ele>144.815796</ele>
        <time>2011-05-08T08:48:13Z</time>
      </trkpt>
      <trkpt lat="44.2137" lon="0.72336">
        <ele>145.296387</ele>
        <time>2011-05-08T08:48:25Z</time>
      </trkpt>
      <trkpt lat="44.21327" lon="0.72346">
        <ele>149.622314</ele>
        <time>2011-05-08T08:48:40Z</time>
      </trkpt>
      <trkpt lat="44.21288" lon="0.72342">
        <ele>150.103027</ele>
        <time>2011-05-08T08:48:53Z</time>
      </trkpt>
      <trkpt lat="44.21226" lon="0.72347">
        <ele>147.218994</ele>
        <time>2011-05-08T08:49:05Z</time>
      </trkpt>
      <trkpt lat="44.21195" lon="0.72342">
        <ele>146.257813</ele>
        <time>2011-05-08T08:49:10Z</time>
      </trkpt>
      <trkpt lat="44.21153" lon="0.72302">
        <ele>145.296387</ele>
        <time>2011-05-08T08:49:20Z</time>
      </trkpt>
      <trkpt lat="44.21133" lon="0.72282">
        <ele>145.7771</ele>
        <time>2011-05-08T08:49:26Z</time>
      </trkpt>
      <trkpt lat="44.21123" lon="0.72274">
        <ele>145.7771</ele>
        <time>2011-05-08T08:49:29Z</time>
      </trkpt>
      <trkpt lat="44.21104" lon="0.72258">
        <ele>145.7771</ele>
        <time>2011-05-08T08:49:34Z</time>
      </trkpt>
      <trkpt lat="44.21057" lon="0.72217">
        <ele>144.335205</ele>
        <time>2011-05-08T08:49:44Z</time>
      </trkpt>
      <trkpt lat="44.21043" lon="0.72201">
        <ele>142.893066</ele>
        <time>2011-05-08T08:49:48Z</time>
      </trkpt>
      <trkpt lat="44.2103" lon="0.72182">
        <ele>141.45105</ele>
        <time>2011-05-08T08:49:52Z</time>
      </trkpt>
      <trkpt lat="44.21017" lon="0.7216">
        <ele>140.009155</ele>
        <time>2011-05-08T08:49:56Z</time>
      </trkpt>
      <trkpt lat="44.21" lon="0.72135">
        <ele>139.528442</ele>
        <time>2011-05-08T08:50:01Z</time>
      </trkpt>
      <trkpt lat="44.20998" lon="0.72117">
        <ele>139.528442</ele>
        <time>2011-05-08T08:50:04Z</time>
      </trkpt>
      <trkpt lat="44.21007" lon="0.72043">
        <ele>137.605835</ele>
        <time>2011-05-08T08:50:13Z</time>
      </trkpt>
      <trkpt lat="44.2099" lon="0.72028">
        <ele>137.605835</ele>
        <time>2011-05-08T08:50:18Z</time>
      </trkpt>
      <trkpt lat="44.20923" lon="0.72071">
        <ele>136.16394</ele>
        <time>2011-05-08T08:50:30Z</time>
      </trkpt>
      <trkpt lat="44.20872" lon="0.72069">
        <ele>134.721924</ele>
        <time>2011-05-08T08:50:37Z</time>
      </trkpt>
      <trkpt lat="44.20865" lon="0.72064">
        <ele>134.241211</ele>
        <time>2011-05-08T08:50:38Z</time>
      </trkpt>
      <trkpt lat="44.20829" lon="0.72041">
        <ele>134.241211</ele>
        <time>2011-05-08T08:50:44Z</time>
      </trkpt>
      <trkpt lat="44.20813" lon="0.72015">
        <ele>134.241211</ele>
        <time>2011-05-08T08:50:48Z</time>
      </trkpt>
      <trkpt lat="44.20781" lon="0.71965">
        <ele>134.241211</ele>
        <time>2011-05-08T08:50:58Z</time>
      </trkpt>
      <trkpt lat="44.20762" lon="0.71964">
        <ele>133.760498</ele>
        <time>2011-05-08T08:51:03Z</time>
      </trkpt>
      <trkpt lat="44.20742" lon="0.71985">
        <ele>139.047852</ele>
        <time>2011-05-08T08:51:14Z</time>
      </trkpt>
      <trkpt lat="44.20715" lon="0.72008">
        <ele>141.931763</ele>
        <time>2011-05-08T08:51:29Z</time>
      </trkpt>
      <trkpt lat="44.2071" lon="0.72011">
        <ele>142.412476</ele>
        <time>2011-05-08T08:51:32Z</time>
      </trkpt>
      <trkpt lat="44.20692" lon="0.71983">
        <ele>143.373657</ele>
        <time>2011-05-08T08:51:45Z</time>
      </trkpt>
      <trkpt lat="44.2067" lon="0.71933">
        <ele>144.815796</ele>
        <time>2011-05-08T08:52:00Z</time>
      </trkpt>
      <trkpt lat="44.20652" lon="0.71895">
        <ele>145.7771</ele>
        <time>2011-05-08T08:52:12Z</time>
      </trkpt>
      <trkpt lat="44.20635" lon="0.71859">
        <ele>148.18042</ele>
        <time>2011-05-08T08:52:27Z</time>
      </trkpt>
      <trkpt lat="44.20623" lon="0.71827">
        <ele>149.141602</ele>
        <time>2011-05-08T08:52:40Z</time>
      </trkpt>
      <trkpt lat="44.2062" lon="0.7182">
        <ele>149.622314</ele>
        <time>2011-05-08T08:52:43Z</time>
      </trkpt>
      <trkpt lat="44.2061" lon="0.71788">
        <ele>151.064209</ele>
        <time>2011-05-08T08:52:57Z</time>
      </trkpt>
      <trkpt lat="44.20602" lon="0.7176">
        <ele>153.467651</ele>
        <time>2011-05-08T08:53:10Z</time>
      </trkpt>
      <trkpt lat="44.20593" lon="0.71732">
        <ele>153.948364</ele>
        <time>2011-05-08T08:53:23Z</time>
      </trkpt>
      <trkpt lat="44.20572" lon="0.71681">
        <ele>154.428955</ele>
        <time>2011-05-08T08:53:34Z</time>
      </trkpt>
      <trkpt lat="44.20565" lon="0.71666">
        <ele>153.948364</ele>
        <time>2011-05-08T08:53:36Z</time>
      </trkpt>
      <trkpt lat="44.20552" lon="0.71628">
        <ele>152.986938</ele>
        <time>2011-05-08T08:53:44Z</time>
      </trkpt>
      <trkpt lat="44.20547" lon="0.71623">
        <ele>150.103027</ele>
        <time>2011-05-08T08:53:59Z</time>
      </trkpt>
      <trkpt lat="44.20546" lon="0.71622">
        <ele>158.27417</ele>
        <time>2011-05-08T09:00:52Z</time>
      </trkpt>
      <trkpt lat="44.20547" lon="0.71622">
        <ele>158.754761</ele>
        <time>2011-05-08T09:00:56Z</time>
      </trkpt>
      <trkpt lat="44.20537" lon="0.71594">
        <ele>157.793579</ele>
        <time>2011-05-08T09:01:05Z</time>
      </trkpt>
      <trkpt lat="44.20523" lon="0.71561">
        <ele>156.351563</ele>
        <time>2011-05-08T09:01:10Z</time>
      </trkpt>
      <trkpt lat="44.20473" lon="0.71445">
        <ele>152.506348</ele>
        <time>2011-05-08T09:01:24Z</time>
      </trkpt>
      <trkpt lat="44.20467" lon="0.71427">
        <ele>152.025757</ele>
        <time>2011-05-08T09:01:26Z</time>
      </trkpt>
      <trkpt lat="44.20426" lon="0.71345">
        <ele>151.064209</ele>
        <time>2011-05-08T09:01:38Z</time>
      </trkpt>
      <trkpt lat="44.20403" lon="0.71303">
        <ele>151.544922</ele>
        <time>2011-05-08T09:01:46Z</time>
      </trkpt>
      <trkpt lat="44.20372" lon="0.71246">
        <ele>150.103027</ele>
        <time>2011-05-08T09:01:58Z</time>
      </trkpt>
      <trkpt lat="44.20363" lon="0.71231">
        <ele>150.583618</ele>
        <time>2011-05-08T09:02:01Z</time>
      </trkpt>
      <trkpt lat="44.20334" lon="0.71191">
        <ele>151.544922</ele>
        <time>2011-05-08T09:02:12Z</time>
      </trkpt>
      <trkpt lat="44.20326" lon="0.71182">
        <ele>152.506348</ele>
        <time>2011-05-08T09:02:16Z</time>
      </trkpt>
      <trkpt lat="44.20296" lon="0.71155">
        <ele>154.428955</ele>
        <time>2011-05-08T09:02:30Z</time>
      </trkpt>
      <trkpt lat="44.20276" lon="0.71129">
        <ele>155.390259</ele>
        <time>2011-05-08T09:02:41Z</time>
      </trkpt>
      <trkpt lat="44.2025" lon="0.7109">
        <ele>157.793579</ele>
        <time>2011-05-08T09:02:55Z</time>
      </trkpt>
      <trkpt lat="44.20227" lon="0.71059">
        <ele>160.196899</ele>
        <time>2011-05-08T09:03:07Z</time>
      </trkpt>
      <trkpt lat="44.20199" lon="0.71025">
        <ele>161.158203</ele>
        <time>2011-05-08T09:03:18Z</time>
      </trkpt>
      <trkpt lat="44.20177" lon="0.70999">
        <ele>159.716187</ele>
        <time>2011-05-08T09:03:25Z</time>
      </trkpt>
      <trkpt lat="44.20146" lon="0.70933">
        <ele>156.351563</ele>
        <time>2011-05-08T09:03:35Z</time>
      </trkpt>
      <trkpt lat="44.20138" lon="0.7092">
        <ele>155.390259</ele>
        <time>2011-05-08T09:03:37Z</time>
      </trkpt>
      <trkpt lat="44.20127" lon="0.70898">
        <ele>154.428955</ele>
        <time>2011-05-08T09:03:40Z</time>
      </trkpt>
      <trkpt lat="44.20101" lon="0.70855">
        <ele>153.467651</ele>
        <time>2011-05-08T09:03:47Z</time>
      </trkpt>
      <trkpt lat="44.20063" lon="0.70792">
        <ele>153.467651</ele>
        <time>2011-05-08T09:03:59Z</time>
      </trkpt>
      <trkpt lat="44.20016" lon="0.70723">
        <ele>153.948364</ele>
        <time>2011-05-08T09:04:14Z</time>
      </trkpt>
      <trkpt lat="44.20004" lon="0.70712">
        <ele>153.948364</ele>
        <time>2011-05-08T09:04:24Z</time>
      </trkpt>
      <trkpt lat="44.20004" lon="0.70712">
        <ele>154.428955</ele>
        <time>2011-05-08T09:04:28Z</time>
      </trkpt>
      <trkpt lat="44.20022" lon="0.7073">
        <ele>155.870972</ele>
        <time>2011-05-08T09:04:37Z</time>
      </trkpt>
      <trkpt lat="44.20053" lon="0.70775">
        <ele>155.870972</ele>
        <time>2011-05-08T09:04:51Z</time>
      </trkpt>
      <trkpt lat="44.20082" lon="0.70822">
        <ele>154.428955</ele>
        <time>2011-05-08T09:05:04Z</time>
      </trkpt>
      <trkpt lat="44.20095" lon="0.70847">
        <ele>154.909546</ele>
        <time>2011-05-08T09:05:13Z</time>
      </trkpt>
      <trkpt lat="44.2009" lon="0.70861">
        <ele>154.428955</ele>
        <time>2011-05-08T09:05:18Z</time>
      </trkpt>
      <trkpt lat="44.2008" lon="0.70872">
        <ele>153.948364</ele>
        <time>2011-05-08T09:05:21Z</time>
      </trkpt>
      <trkpt lat="44.20064" lon="0.70889">
        <ele>153.467651</ele>
        <time>2011-05-08T09:05:25Z</time>
      </trkpt>
      <trkpt lat="44.2005" lon="0.70909">
        <ele>152.506348</ele>
        <time>2011-05-08T09:05:29Z</time>
      </trkpt>
      <trkpt lat="44.20032" lon="0.70917">
        <ele>152.025757</ele>
        <time>2011-05-08T09:05:33Z</time>
      </trkpt>
      <trkpt lat="44.20008" lon="0.70919">
        <ele>152.025757</ele>
        <time>2011-05-08T09:05:37Z</time>
      </trkpt>
      <trkpt lat="44.19958" lon="0.7092">
        <ele>150.103027</ele>
        <time>2011-05-08T09:05:45Z</time>
      </trkpt>
      <trkpt lat="44.19948" lon="0.70903">
        <ele>149.622314</ele>
        <time>2011-05-08T09:05:50Z</time>
      </trkpt>
      <trkpt lat="44.19952" lon="0.70852">
        <ele>152.025757</ele>
        <time>2011-05-08T09:06:02Z</time>
      </trkpt>
      <trkpt lat="44.19953" lon="0.70819">
        <ele>152.986938</ele>
        <time>2011-05-08T09:06:09Z</time>
      </trkpt>
      <trkpt lat="44.1992" lon="0.70781">
        <ele>151.064209</ele>
        <time>2011-05-08T09:06:18Z</time>
      </trkpt>
      <trkpt lat="44.19915" lon="0.70775">
        <ele>151.064209</ele>
        <time>2011-05-08T09:06:19Z</time>
      </trkpt>
      <trkpt lat="44.19893" lon="0.70785">
        <ele>148.661011</ele>
        <time>2011-05-08T09:06:25Z</time>
      </trkpt>
      <trkpt lat="44.19886" lon="0.70778">
        <ele>146.738403</ele>
        <time>2011-05-08T09:06:31Z</time>
      </trkpt>
      <trkpt lat="44.19872" lon="0.70758">
        <ele>146.738403</ele>
        <time>2011-05-08T09:06:42Z</time>
      </trkpt>
      <trkpt lat="44.19871" lon="0.70756">
        <ele>146.738403</ele>
        <time>2011-05-08T09:06:43Z</time>
      </trkpt>
      <trkpt lat="44.19855" lon="0.70735">
        <ele>147.218994</ele>
        <time>2011-05-08T09:06:55Z</time>
      </trkpt>
      <trkpt lat="44.1984" lon="0.7071">
        <ele>148.661011</ele>
        <time>2011-05-08T09:07:07Z</time>
      </trkpt>
      <trkpt lat="44.19835" lon="0.70705">
        <ele>149.141602</ele>
        <time>2011-05-08T09:07:10Z</time>
      </trkpt>
      <trkpt lat="44.19821" lon="0.70683">
        <ele>151.544922</ele>
        <time>2011-05-08T09:07:21Z</time>
      </trkpt>
      <trkpt lat="44.19803" lon="0.70654">
        <ele>153.948364</ele>
        <time>2011-05-08T09:07:36Z</time>
      </trkpt>
      <trkpt lat="44.19789" lon="0.70617">
        <ele>155.870972</ele>
        <time>2011-05-08T09:07:51Z</time>
      </trkpt>
      <trkpt lat="44.19773" lon="0.70568">
        <ele>157.793579</ele>
        <time>2011-05-08T09:08:05Z</time>
      </trkpt>
      <trkpt lat="44.1977" lon="0.70563">
        <ele>157.793579</ele>
        <time>2011-05-08T09:08:06Z</time>
      </trkpt>
      <trkpt lat="44.19733" lon="0.7049">
        <ele>153.467651</ele>
        <time>2011-05-08T09:08:20Z</time>
      </trkpt>
      <trkpt lat="44.19728" lon="0.70477">
        <ele>152.986938</ele>
        <time>2011-05-08T09:08:22Z</time>
      </trkpt>
      <trkpt lat="44.19725" lon="0.70464">
        <ele>152.506348</ele>
        <time>2011-05-08T09:08:24Z</time>
      </trkpt>
      <trkpt lat="44.19713" lon="0.70452">
        <ele>148.661011</ele>
        <time>2011-05-08T09:08:31Z</time>
      </trkpt>
      <trkpt lat="44.19712" lon="0.7045">
        <ele>145.7771</ele>
        <time>2011-05-08T09:08:42Z</time>
      </trkpt>
      <trkpt lat="44.1971" lon="0.70451">
        <ele>145.296387</ele>
        <time>2011-05-08T09:08:44Z</time>
      </trkpt>
      <trkpt lat="44.19702" lon="0.70452">
        <ele>144.815796</ele>
        <time>2011-05-08T09:08:48Z</time>
      </trkpt>
      <trkpt lat="44.19695" lon="0.70454">
        <ele>144.815796</ele>
        <time>2011-05-08T09:08:50Z</time>
      </trkpt>
      <trkpt lat="44.19684" lon="0.70457">
        <ele>144.815796</ele>
        <time>2011-05-08T09:08:53Z</time>
      </trkpt>
      <trkpt lat="44.19668" lon="0.70455">
        <ele>143.85437</ele>
        <time>2011-05-08T09:08:57Z</time>
      </trkpt>
      <trkpt lat="44.19639" lon="0.7044">
        <ele>141.931763</ele>
        <time>2011-05-08T09:09:07Z</time>
      </trkpt>
      <trkpt lat="44.19613" lon="0.7042">
        <ele>139.047852</ele>
        <time>2011-05-08T09:09:16Z</time>
      </trkpt>
      <trkpt lat="44.19583" lon="0.70397">
        <ele>138.567261</ele>
        <time>2011-05-08T09:09:25Z</time>
      </trkpt>
      <trkpt lat="44.19568" lon="0.70375">
        <ele>138.086548</ele>
        <time>2011-05-08T09:09:31Z</time>
      </trkpt>
      <trkpt lat="44.19561" lon="0.70294">
        <ele>138.086548</ele>
        <time>2011-05-08T09:09:43Z</time>
      </trkpt>
      <trkpt lat="44.19558" lon="0.7028">
        <ele>138.086548</ele>
        <time>2011-05-08T09:09:45Z</time>
      </trkpt>
      <trkpt lat="44.19548" lon="0.70259">
        <ele>139.047852</ele>
        <time>2011-05-08T09:09:49Z</time>
      </trkpt>
      <trkpt lat="44.19538" lon="0.70249">
        <ele>138.567261</ele>
        <time>2011-05-08T09:09:52Z</time>
      </trkpt>
      <trkpt lat="44.19516" lon="0.70211">
        <ele>138.567261</ele>
        <time>2011-05-08T09:10:00Z</time>
      </trkpt>
      <trkpt lat="44.19505" lon="0.70208">
        <ele>137.605835</ele>
        <time>2011-05-08T09:10:04Z</time>
      </trkpt>
      <trkpt lat="44.1947" lon="0.70199">
        <ele>136.644653</ele>
        <time>2011-05-08T09:10:15Z</time>
      </trkpt>
      <trkpt lat="44.1945" lon="0.70197">
        <ele>134.721924</ele>
        <time>2011-05-08T09:10:20Z</time>
      </trkpt>
      <trkpt lat="44.19444" lon="0.70172">
        <ele>132.799316</ele>
        <time>2011-05-08T09:10:27Z</time>
      </trkpt>
      <trkpt lat="44.19455" lon="0.70144">
        <ele>130.876709</ele>
        <time>2011-05-08T09:10:40Z</time>
      </trkpt>
      <trkpt lat="44.19473" lon="0.70112">
        <ele>126.550659</ele>
        <time>2011-05-08T09:10:52Z</time>
      </trkpt>
      <trkpt lat="44.19492" lon="0.7007">
        <ele>121.26355</ele>
        <time>2011-05-08T09:11:02Z</time>
      </trkpt>
      <trkpt lat="44.19495" lon="0.70062">
        <ele>120.302124</ele>
        <time>2011-05-08T09:11:04Z</time>
      </trkpt>
      <trkpt lat="44.19512" lon="0.70002">
        <ele>113.572998</ele>
        <time>2011-05-08T09:11:13Z</time>
      </trkpt>
      <trkpt lat="44.19516" lon="0.69953">
        <ele>106.363037</ele>
        <time>2011-05-08T09:11:22Z</time>
      </trkpt>
      <trkpt lat="44.19517" lon="0.69921">
        <ele>102.037109</ele>
        <time>2011-05-08T09:11:26Z</time>
      </trkpt>
      <trkpt lat="44.19515" lon="0.69853">
        <ele>91.462524</ele>
        <time>2011-05-08T09:11:34Z</time>
      </trkpt>
      <trkpt lat="44.19524" lon="0.6983">
        <ele>88.578735</ele>
        <time>2011-05-08T09:11:38Z</time>
      </trkpt>
      <trkpt lat="44.19575" lon="0.69779">
        <ele>81.368774</ele>
        <time>2011-05-08T09:11:49Z</time>
      </trkpt>
      <trkpt lat="44.1961" lon="0.69729">
        <ele>77.042847</ele>
        <time>2011-05-08T09:11:58Z</time>
      </trkpt>
      <trkpt lat="44.1962" lon="0.69715">
        <ele>75.60083</ele>
        <time>2011-05-08T09:12:01Z</time>
      </trkpt>
      <trkpt lat="44.19618" lon="0.69684">
        <ele>74.158813</ele>
        <time>2011-05-08T09:12:08Z</time>
      </trkpt>
      <trkpt lat="44.19601" lon="0.69653">
        <ele>71.755493</ele>
        <time>2011-05-08T09:12:15Z</time>
      </trkpt>
      <trkpt lat="44.19592" lon="0.69641">
        <ele>71.274902</ele>
        <time>2011-05-08T09:12:18Z</time>
      </trkpt>
      <trkpt lat="44.19569" lon="0.69615">
        <ele>69.832886</ele>
        <time>2011-05-08T09:12:23Z</time>
      </trkpt>
      <trkpt lat="44.19556" lon="0.69595">
        <ele>69.352295</ele>
        <time>2011-05-08T09:12:26Z</time>
      </trkpt>
      <trkpt lat="44.19546" lon="0.69567">
        <ele>68.871582</ele>
        <time>2011-05-08T09:12:30Z</time>
      </trkpt>
      <trkpt lat="44.19534" lon="0.69541">
        <ele>68.871582</ele>
        <time>2011-05-08T09:12:34Z</time>
      </trkpt>
      <trkpt lat="44.19498" lon="0.69493">
        <ele>68.871582</ele>
        <time>2011-05-08T09:12:43Z</time>
      </trkpt>
      <trkpt lat="44.19478" lon="0.69432">
        <ele>68.871582</ele>
        <time>2011-05-08T09:12:52Z</time>
      </trkpt>
      <trkpt lat="44.19463" lon="0.69409">
        <ele>68.390869</ele>
        <time>2011-05-08T09:12:56Z</time>
      </trkpt>
      <trkpt lat="44.19434" lon="0.69386">
        <ele>68.871582</ele>
        <time>2011-05-08T09:13:02Z</time>
      </trkpt>
      <trkpt lat="44.19427" lon="0.69376">
        <ele>68.390869</ele>
        <time>2011-05-08T09:13:04Z</time>
      </trkpt>
      <trkpt lat="44.19415" lon="0.6936">
        <ele>67.910278</ele>
        <time>2011-05-08T09:13:07Z</time>
      </trkpt>
      <trkpt lat="44.19336" lon="0.69299">
        <ele>70.313477</ele>
        <time>2011-05-08T09:13:23Z</time>
      </trkpt>
      <trkpt lat="44.19327" lon="0.69291">
        <ele>71.274902</ele>
        <time>2011-05-08T09:13:25Z</time>
      </trkpt>
      <trkpt lat="44.19276" lon="0.69235">
        <ele>72.716919</ele>
        <time>2011-05-08T09:13:36Z</time>
      </trkpt>
      <trkpt lat="44.19208" lon="0.69132">
        <ele>70.794189</ele>
        <time>2011-05-08T09:13:49Z</time>
      </trkpt>
      <trkpt lat="44.19165" lon="0.69058">
        <ele>67.429688</ele>
        <time>2011-05-08T09:13:57Z</time>
      </trkpt>
      <trkpt lat="44.19154" lon="0.69016">
        <ele>65.50708</ele>
        <time>2011-05-08T09:14:01Z</time>
      </trkpt>
      <trkpt lat="44.1915" lon="0.68963">
        <ele>65.987671</ele>
        <time>2011-05-08T09:14:08Z</time>
      </trkpt>
      <trkpt lat="44.19192" lon="0.68873">
        <ele>65.026367</ele>
        <time>2011-05-08T09:14:21Z</time>
      </trkpt>
      <trkpt lat="44.19192" lon="0.68845">
        <ele>65.026367</ele>
        <time>2011-05-08T09:14:26Z</time>
      </trkpt>
      <trkpt lat="44.19132" lon="0.68798">
        <ele>64.065063</ele>
        <time>2011-05-08T09:14:38Z</time>
      </trkpt>
      <trkpt lat="44.19121" lon="0.68787">
        <ele>64.065063</ele>
        <time>2011-05-08T09:14:40Z</time>
      </trkpt>
      <trkpt lat="44.19105" lon="0.68722">
        <ele>63.584351</ele>
        <time>2011-05-08T09:14:48Z</time>
      </trkpt>
      <trkpt lat="44.19107" lon="0.68686">
        <ele>63.103638</ele>
        <time>2011-05-08T09:14:52Z</time>
      </trkpt>
      <trkpt lat="44.19098" lon="0.6863">
        <ele>63.103638</ele>
        <time>2011-05-08T09:14:58Z</time>
      </trkpt>
      <trkpt lat="44.19042" lon="0.68538">
        <ele>62.622925</ele>
        <time>2011-05-08T09:15:10Z</time>
      </trkpt>
      <trkpt lat="44.18971" lon="0.68438">
        <ele>64.545654</ele>
        <time>2011-05-08T09:15:24Z</time>
      </trkpt>
      <trkpt lat="44.18957" lon="0.68412">
        <ele>64.065063</ele>
        <time>2011-05-08T09:15:27Z</time>
      </trkpt>
      <trkpt lat="44.18941" lon="0.6839">
        <ele>64.065063</ele>
        <time>2011-05-08T09:15:30Z</time>
      </trkpt>
      <trkpt lat="44.18886" lon="0.68331">
        <ele>62.142334</ele>
        <time>2011-05-08T09:15:39Z</time>
      </trkpt>
      <trkpt lat="44.18827" lon="0.68244">
        <ele>62.142334</ele>
        <time>2011-05-08T09:15:50Z</time>
      </trkpt>
      <trkpt lat="44.1878" lon="0.68234">
        <ele>60.700317</ele>
        <time>2011-05-08T09:15:57Z</time>
      </trkpt>
      <trkpt lat="44.18741" lon="0.68252">
        <ele>57.335815</ele>
        <time>2011-05-08T09:16:03Z</time>
      </trkpt>
      <trkpt lat="44.18713" lon="0.68227">
        <ele>55.893799</ele>
        <time>2011-05-08T09:16:09Z</time>
      </trkpt>
      <trkpt lat="44.18712" lon="0.68218">
        <ele>55.893799</ele>
        <time>2011-05-08T09:16:10Z</time>
      </trkpt>
      <trkpt lat="44.18697" lon="0.68042">
        <ele>53.490479</ele>
        <time>2011-05-08T09:16:29Z</time>
      </trkpt>
      <trkpt lat="44.18689" lon="0.67912">
        <ele>51.087158</ele>
        <time>2011-05-08T09:16:43Z</time>
      </trkpt>
      <trkpt lat="44.18673" lon="0.67781">
        <ele>50.125977</ele>
        <time>2011-05-08T09:16:58Z</time>
      </trkpt>
      <trkpt lat="44.18658" lon="0.67696">
        <ele>50.125977</ele>
        <time>2011-05-08T09:17:09Z</time>
      </trkpt>
      <trkpt lat="44.18655" lon="0.67682">
        <ele>49.645264</ele>
        <time>2011-05-08T09:17:11Z</time>
      </trkpt>
      <trkpt lat="44.18648" lon="0.67644">
        <ele>49.164551</ele>
        <time>2011-05-08T09:17:17Z</time>
      </trkpt>
      <trkpt lat="44.18626" lon="0.6764">
        <ele>49.164551</ele>
        <time>2011-05-08T09:17:22Z</time>
      </trkpt>
      <trkpt lat="44.18569" lon="0.67654">
        <ele>48.203369</ele>
        <time>2011-05-08T09:17:34Z</time>
      </trkpt>
      <trkpt lat="44.18553" lon="0.67654">
        <ele>46.76123</ele>
        <time>2011-05-08T09:17:42Z</time>
      </trkpt>
      <trkpt lat="44.18551" lon="0.67653">
        <ele>46.28064</ele>
        <time>2011-05-08T09:17:44Z</time>
      </trkpt>
      <trkpt lat="44.18544" lon="0.67634">
        <ele>48.68396</ele>
        <time>2011-05-08T09:17:56Z</time>
      </trkpt>
      <trkpt lat="44.18545" lon="0.67647">
        <ele>49.645264</ele>
        <time>2011-05-08T09:18:05Z</time>
      </trkpt>
      <trkpt lat="44.18545" lon="0.67647">
        <ele>49.645264</ele>
        <time>2011-05-08T09:18:11Z</time>
      </trkpt>
    </trkseg>
  </trk>
</gpx>